<?xml version="1.0" encoding="UTF-8" standalone="no" ?>
<gpx xmlns="http://www.topografix.com/GPX/1/1" xmlns:xsi="http://www.w3.org/2001/XMLSchema-instance" xsi:schemaLocation="http://www.topografix.com/GPX/1/1 http://www.topografix.com/GPX/1/1/gpx.xsd" version="1.1" creator="VisuGPX - https://www.visugpx.com">
  <metadata>
    <name>Le Regagnas en nocturne</name>
    <desc><![CDATA[Rando sympa faite de nuit, sans difficulté, à la frontale !]]></desc>
  </metadata>
  <trk>
    <name><![CDATA[ACTIVE LOG 001]]></name>
    <trkseg>
      <trkpt lat="43.3903" lon="5.64685">
        <ele>335.63732910156</ele>
        <time>2019-05-10T17:17:34Z</time>
      </trkpt>
      <trkpt lat="43.39036" lon="5.64701">
        <ele>346.21203613281</ele>
        <time>2019-05-10T17:17:58Z</time>
      </trkpt>
      <trkpt lat="43.39051" lon="5.64703">
        <ele>343.32788085938</ele>
        <time>2019-05-10T17:18:12Z</time>
      </trkpt>
      <trkpt lat="43.39055" lon="5.64706">
        <ele>340.92468261719</ele>
        <time>2019-05-10T17:18:22Z</time>
      </trkpt>
      <trkpt lat="43.39058" lon="5.64709">
        <ele>339.48266601562</ele>
        <time>2019-05-10T17:18:26Z</time>
      </trkpt>
      <trkpt lat="43.39058" lon="5.64727">
        <ele>335.15673828125</ele>
        <time>2019-05-10T17:18:34Z</time>
      </trkpt>
      <trkpt lat="43.39064" lon="5.64734">
        <ele>331.3115234375</ele>
        <time>2019-05-10T17:18:40Z</time>
      </trkpt>
      <trkpt lat="43.39066" lon="5.64734">
        <ele>330.35021972656</ele>
        <time>2019-05-10T17:18:42Z</time>
      </trkpt>
      <trkpt lat="43.39071" lon="5.6474">
        <ele>326.5048828125</ele>
        <time>2019-05-10T17:18:48Z</time>
      </trkpt>
      <trkpt lat="43.39066" lon="5.64765">
        <ele>321.2177734375</ele>
        <time>2019-05-10T17:18:56Z</time>
      </trkpt>
      <trkpt lat="43.39066" lon="5.64778">
        <ele>319.77563476562</ele>
        <time>2019-05-10T17:18:59Z</time>
      </trkpt>
      <trkpt lat="43.39069" lon="5.64785">
        <ele>318.81433105469</ele>
        <time>2019-05-10T17:19:02Z</time>
      </trkpt>
      <trkpt lat="43.3907" lon="5.64811">
        <ele>328.42761230469</ele>
        <time>2019-05-10T17:19:16Z</time>
      </trkpt>
      <trkpt lat="43.39082" lon="5.64819">
        <ele>331.3115234375</ele>
        <time>2019-05-10T17:19:30Z</time>
      </trkpt>
      <trkpt lat="43.39086" lon="5.64817">
        <ele>332.27282714844</ele>
        <time>2019-05-10T17:19:34Z</time>
      </trkpt>
      <trkpt lat="43.39089" lon="5.64817">
        <ele>333.23413085938</ele>
        <time>2019-05-10T17:19:37Z</time>
      </trkpt>
      <trkpt lat="43.39099" lon="5.64819">
        <ele>335.63732910156</ele>
        <time>2019-05-10T17:19:50Z</time>
      </trkpt>
      <trkpt lat="43.39105" lon="5.64822">
        <ele>334.19543457031</ele>
        <time>2019-05-10T17:20:02Z</time>
      </trkpt>
      <trkpt lat="43.39117" lon="5.64829">
        <ele>330.83093261719</ele>
        <time>2019-05-10T17:20:14Z</time>
      </trkpt>
      <trkpt lat="43.39122" lon="5.64837">
        <ele>327.46618652344</ele>
        <time>2019-05-10T17:20:23Z</time>
      </trkpt>
      <trkpt lat="43.39128" lon="5.64849">
        <ele>323.14038085938</ele>
        <time>2019-05-10T17:20:34Z</time>
      </trkpt>
      <trkpt lat="43.39142" lon="5.64862">
        <ele>318.33361816406</ele>
        <time>2019-05-10T17:20:44Z</time>
      </trkpt>
      <trkpt lat="43.3914" lon="5.64876">
        <ele>313.04650878906</ele>
        <time>2019-05-10T17:20:53Z</time>
      </trkpt>
      <trkpt lat="43.39141" lon="5.64908">
        <ele>310.64306640625</ele>
        <time>2019-05-10T17:21:12Z</time>
      </trkpt>
      <trkpt lat="43.39153" lon="5.64941">
        <ele>307.75927734375</ele>
        <time>2019-05-10T17:21:27Z</time>
      </trkpt>
      <trkpt lat="43.39179" lon="5.64956">
        <ele>303.43322753906</ele>
        <time>2019-05-10T17:21:48Z</time>
      </trkpt>
      <trkpt lat="43.39171" lon="5.64968">
        <ele>301.02990722656</ele>
        <time>2019-05-10T17:22:01Z</time>
      </trkpt>
      <trkpt lat="43.39155" lon="5.64979">
        <ele>298.62670898438</ele>
        <time>2019-05-10T17:22:20Z</time>
      </trkpt>
      <trkpt lat="43.39166" lon="5.65012">
        <ele>295.74267578125</ele>
        <time>2019-05-10T17:22:38Z</time>
      </trkpt>
      <trkpt lat="43.39171" lon="5.65015">
        <ele>295.74267578125</ele>
        <time>2019-05-10T17:22:40Z</time>
      </trkpt>
      <trkpt lat="43.39168" lon="5.65043">
        <ele>295.74267578125</ele>
        <time>2019-05-10T17:22:52Z</time>
      </trkpt>
      <trkpt lat="43.39169" lon="5.65052">
        <ele>295.74267578125</ele>
        <time>2019-05-10T17:22:57Z</time>
      </trkpt>
      <trkpt lat="43.39175" lon="5.65073">
        <ele>297.18469238281</ele>
        <time>2019-05-10T17:23:08Z</time>
      </trkpt>
      <trkpt lat="43.39174" lon="5.65091">
        <ele>301.51062011719</ele>
        <time>2019-05-10T17:23:19Z</time>
      </trkpt>
      <trkpt lat="43.39177" lon="5.65109">
        <ele>301.99133300781</ele>
        <time>2019-05-10T17:23:32Z</time>
      </trkpt>
      <trkpt lat="43.39178" lon="5.65111">
        <ele>301.99133300781</ele>
        <time>2019-05-10T17:23:33Z</time>
      </trkpt>
      <trkpt lat="43.39179" lon="5.65116">
        <ele>302.47192382812</ele>
        <time>2019-05-10T17:23:37Z</time>
      </trkpt>
      <trkpt lat="43.3919" lon="5.65119">
        <ele>302.95251464844</ele>
        <time>2019-05-10T17:23:47Z</time>
      </trkpt>
      <trkpt lat="43.39199" lon="5.65131">
        <ele>303.91394042969</ele>
        <time>2019-05-10T17:23:58Z</time>
      </trkpt>
      <trkpt lat="43.39207" lon="5.65132">
        <ele>309.201171875</ele>
        <time>2019-05-10T17:24:09Z</time>
      </trkpt>
      <trkpt lat="43.3921" lon="5.65133">
        <ele>308.72045898438</ele>
        <time>2019-05-10T17:24:10Z</time>
      </trkpt>
      <trkpt lat="43.39214" lon="5.65137">
        <ele>309.68188476562</ele>
        <time>2019-05-10T17:24:16Z</time>
      </trkpt>
      <trkpt lat="43.39218" lon="5.65142">
        <ele>310.16247558594</ele>
        <time>2019-05-10T17:24:21Z</time>
      </trkpt>
      <trkpt lat="43.39222" lon="5.6514">
        <ele>310.64306640625</ele>
        <time>2019-05-10T17:24:24Z</time>
      </trkpt>
      <trkpt lat="43.39226" lon="5.65143">
        <ele>313.04650878906</ele>
        <time>2019-05-10T17:24:30Z</time>
      </trkpt>
      <trkpt lat="43.39231" lon="5.65146">
        <ele>312.56579589844</ele>
        <time>2019-05-10T17:24:42Z</time>
      </trkpt>
      <trkpt lat="43.39234" lon="5.65155">
        <ele>313.52722167969</ele>
        <time>2019-05-10T17:24:52Z</time>
      </trkpt>
      <trkpt lat="43.39241" lon="5.65163">
        <ele>313.52722167969</ele>
        <time>2019-05-10T17:25:01Z</time>
      </trkpt>
      <trkpt lat="43.39263" lon="5.65171">
        <ele>316.89172363281</ele>
        <time>2019-05-10T17:25:13Z</time>
      </trkpt>
      <trkpt lat="43.39263" lon="5.65177">
        <ele>316.89172363281</ele>
        <time>2019-05-10T17:25:17Z</time>
      </trkpt>
      <trkpt lat="43.39291" lon="5.65194">
        <ele>318.81433105469</ele>
        <time>2019-05-10T17:25:30Z</time>
      </trkpt>
      <trkpt lat="43.39292" lon="5.65206">
        <ele>321.69836425781</ele>
        <time>2019-05-10T17:25:45Z</time>
      </trkpt>
      <trkpt lat="43.39304" lon="5.65229">
        <ele>324.58227539062</ele>
        <time>2019-05-10T17:26:01Z</time>
      </trkpt>
      <trkpt lat="43.39308" lon="5.65236">
        <ele>323.62097167969</ele>
        <time>2019-05-10T17:26:12Z</time>
      </trkpt>
      <trkpt lat="43.39319" lon="5.65243">
        <ele>325.54357910156</ele>
        <time>2019-05-10T17:26:17Z</time>
      </trkpt>
      <trkpt lat="43.39335" lon="5.65243">
        <ele>327.94677734375</ele>
        <time>2019-05-10T17:26:32Z</time>
      </trkpt>
      <trkpt lat="43.39336" lon="5.6525">
        <ele>331.79211425781</ele>
        <time>2019-05-10T17:26:36Z</time>
      </trkpt>
      <trkpt lat="43.3935" lon="5.65265">
        <ele>336.59887695312</ele>
        <time>2019-05-10T17:26:51Z</time>
      </trkpt>
      <trkpt lat="43.39345" lon="5.65292">
        <ele>344.28942871094</ele>
        <time>2019-05-10T17:27:06Z</time>
      </trkpt>
      <trkpt lat="43.39344" lon="5.65295">
        <ele>345.25061035156</ele>
        <time>2019-05-10T17:27:08Z</time>
      </trkpt>
      <trkpt lat="43.39339" lon="5.65297">
        <ele>347.17321777344</ele>
        <time>2019-05-10T17:27:25Z</time>
      </trkpt>
      <trkpt lat="43.39338" lon="5.653">
        <ele>354.86376953125</ele>
        <time>2019-05-10T17:27:38Z</time>
      </trkpt>
      <trkpt lat="43.39337" lon="5.65307">
        <ele>356.78637695312</ele>
        <time>2019-05-10T17:27:43Z</time>
      </trkpt>
      <trkpt lat="43.39339" lon="5.65317">
        <ele>360.63171386719</ele>
        <time>2019-05-10T17:27:54Z</time>
      </trkpt>
      <trkpt lat="43.39344" lon="5.65329">
        <ele>365.43835449219</ele>
        <time>2019-05-10T17:28:07Z</time>
      </trkpt>
      <trkpt lat="43.39346" lon="5.6534">
        <ele>367.84155273438</ele>
        <time>2019-05-10T17:28:16Z</time>
      </trkpt>
      <trkpt lat="43.39355" lon="5.65342">
        <ele>371.68688964844</ele>
        <time>2019-05-10T17:28:29Z</time>
      </trkpt>
      <trkpt lat="43.39357" lon="5.65346">
        <ele>372.64819335938</ele>
        <time>2019-05-10T17:28:35Z</time>
      </trkpt>
      <trkpt lat="43.39361" lon="5.65359">
        <ele>378.41613769531</ele>
        <time>2019-05-10T17:28:50Z</time>
      </trkpt>
      <trkpt lat="43.3937" lon="5.65369">
        <ele>384.66479492188</ele>
        <time>2019-05-10T17:29:03Z</time>
      </trkpt>
      <trkpt lat="43.39372" lon="5.6537">
        <ele>386.10668945312</ele>
        <time>2019-05-10T17:29:19Z</time>
      </trkpt>
      <trkpt lat="43.39372" lon="5.6537">
        <ele>386.58740234375</ele>
        <time>2019-05-10T17:30:47Z</time>
      </trkpt>
      <trkpt lat="43.39382" lon="5.65376">
        <ele>390.4326171875</ele>
        <time>2019-05-10T17:33:32Z</time>
      </trkpt>
      <trkpt lat="43.39388" lon="5.6538">
        <ele>392.35534667969</ele>
        <time>2019-05-10T17:33:39Z</time>
      </trkpt>
      <trkpt lat="43.39396" lon="5.65386">
        <ele>396.20056152344</ele>
        <time>2019-05-10T17:33:51Z</time>
      </trkpt>
      <trkpt lat="43.39404" lon="5.65399">
        <ele>398.60375976562</ele>
        <time>2019-05-10T17:34:06Z</time>
      </trkpt>
      <trkpt lat="43.39409" lon="5.65408">
        <ele>399.56506347656</ele>
        <time>2019-05-10T17:34:18Z</time>
      </trkpt>
      <trkpt lat="43.39416" lon="5.65413">
        <ele>401.48779296875</ele>
        <time>2019-05-10T17:34:29Z</time>
      </trkpt>
      <trkpt lat="43.39424" lon="5.65424">
        <ele>403.89111328125</ele>
        <time>2019-05-10T17:34:43Z</time>
      </trkpt>
      <trkpt lat="43.39425" lon="5.65426">
        <ele>404.37170410156</ele>
        <time>2019-05-10T17:34:45Z</time>
      </trkpt>
      <trkpt lat="43.39435" lon="5.6544">
        <ele>406.77490234375</ele>
        <time>2019-05-10T17:35:00Z</time>
      </trkpt>
      <trkpt lat="43.39439" lon="5.65449">
        <ele>410.1396484375</ele>
        <time>2019-05-10T17:35:11Z</time>
      </trkpt>
      <trkpt lat="43.39442" lon="5.65453">
        <ele>411.58166503906</ele>
        <time>2019-05-10T17:35:17Z</time>
      </trkpt>
      <trkpt lat="43.39447" lon="5.65465">
        <ele>412.54284667969</ele>
        <time>2019-05-10T17:35:29Z</time>
      </trkpt>
      <trkpt lat="43.39448" lon="5.6547">
        <ele>412.54284667969</ele>
        <time>2019-05-10T17:35:33Z</time>
      </trkpt>
      <trkpt lat="43.39455" lon="5.65484">
        <ele>413.98486328125</ele>
        <time>2019-05-10T17:35:45Z</time>
      </trkpt>
      <trkpt lat="43.39459" lon="5.65492">
        <ele>415.42687988281</ele>
        <time>2019-05-10T17:35:54Z</time>
      </trkpt>
      <trkpt lat="43.39462" lon="5.65491">
        <ele>416.38818359375</ele>
        <time>2019-05-10T17:35:57Z</time>
      </trkpt>
      <trkpt lat="43.39472" lon="5.65482">
        <ele>417.349609375</ele>
        <time>2019-05-10T17:36:12Z</time>
      </trkpt>
      <trkpt lat="43.39477" lon="5.6548">
        <ele>417.83020019531</ele>
        <time>2019-05-10T17:36:24Z</time>
      </trkpt>
      <trkpt lat="43.3948" lon="5.65479">
        <ele>418.31079101562</ele>
        <time>2019-05-10T17:36:29Z</time>
      </trkpt>
      <trkpt lat="43.39489" lon="5.65481">
        <ele>419.75280761719</ele>
        <time>2019-05-10T17:36:40Z</time>
      </trkpt>
      <trkpt lat="43.39496" lon="5.65483">
        <ele>420.2333984375</ele>
        <time>2019-05-10T17:36:51Z</time>
      </trkpt>
      <trkpt lat="43.39503" lon="5.65487">
        <ele>423.11743164062</ele>
        <time>2019-05-10T17:37:02Z</time>
      </trkpt>
      <trkpt lat="43.39511" lon="5.65495">
        <ele>427.443359375</ele>
        <time>2019-05-10T17:37:16Z</time>
      </trkpt>
      <trkpt lat="43.39515" lon="5.65502">
        <ele>429.36596679688</ele>
        <time>2019-05-10T17:37:29Z</time>
      </trkpt>
      <trkpt lat="43.39514" lon="5.65504">
        <ele>430.80798339844</ele>
        <time>2019-05-10T17:37:53Z</time>
      </trkpt>
      <trkpt lat="43.39519" lon="5.65512">
        <ele>430.80798339844</ele>
        <time>2019-05-10T17:40:27Z</time>
      </trkpt>
      <trkpt lat="43.39522" lon="5.65519">
        <ele>431.76916503906</ele>
        <time>2019-05-10T17:40:36Z</time>
      </trkpt>
      <trkpt lat="43.39515" lon="5.6553">
        <ele>433.69189453125</ele>
        <time>2019-05-10T17:40:46Z</time>
      </trkpt>
      <trkpt lat="43.39511" lon="5.65541">
        <ele>437.537109375</ele>
        <time>2019-05-10T17:40:58Z</time>
      </trkpt>
      <trkpt lat="43.39512" lon="5.65543">
        <ele>437.537109375</ele>
        <time>2019-05-10T17:41:00Z</time>
      </trkpt>
      <trkpt lat="43.39512" lon="5.65556">
        <ele>440.42126464844</ele>
        <time>2019-05-10T17:41:14Z</time>
      </trkpt>
      <trkpt lat="43.39508" lon="5.65573">
        <ele>442.34387207031</ele>
        <time>2019-05-10T17:41:30Z</time>
      </trkpt>
      <trkpt lat="43.39508" lon="5.6558">
        <ele>443.30505371094</ele>
        <time>2019-05-10T17:41:43Z</time>
      </trkpt>
      <trkpt lat="43.39501" lon="5.65587">
        <ele>440.90185546875</ele>
        <time>2019-05-10T17:45:27Z</time>
      </trkpt>
      <trkpt lat="43.39496" lon="5.65594">
        <ele>442.34387207031</ele>
        <time>2019-05-10T17:45:33Z</time>
      </trkpt>
      <trkpt lat="43.39501" lon="5.65612">
        <ele>442.82446289062</ele>
        <time>2019-05-10T17:45:51Z</time>
      </trkpt>
      <trkpt lat="43.39501" lon="5.65613">
        <ele>442.82446289062</ele>
        <time>2019-05-10T17:45:52Z</time>
      </trkpt>
      <trkpt lat="43.3951" lon="5.65621">
        <ele>442.82446289062</ele>
        <time>2019-05-10T17:46:04Z</time>
      </trkpt>
      <trkpt lat="43.39522" lon="5.65639">
        <ele>442.82446289062</ele>
        <time>2019-05-10T17:46:23Z</time>
      </trkpt>
      <trkpt lat="43.39531" lon="5.65649">
        <ele>444.7470703125</ele>
        <time>2019-05-10T17:46:38Z</time>
      </trkpt>
      <trkpt lat="43.39533" lon="5.65664">
        <ele>445.22766113281</ele>
        <time>2019-05-10T17:46:49Z</time>
      </trkpt>
      <trkpt lat="43.39539" lon="5.65676">
        <ele>446.18908691406</ele>
        <time>2019-05-10T17:47:05Z</time>
      </trkpt>
      <trkpt lat="43.39556" lon="5.65685">
        <ele>447.15026855469</ele>
        <time>2019-05-10T17:47:25Z</time>
      </trkpt>
      <trkpt lat="43.39563" lon="5.65696">
        <ele>451.47631835938</ele>
        <time>2019-05-10T17:47:42Z</time>
      </trkpt>
      <trkpt lat="43.39569" lon="5.6571">
        <ele>453.39892578125</ele>
        <time>2019-05-10T17:47:53Z</time>
      </trkpt>
      <trkpt lat="43.39572" lon="5.65719">
        <ele>453.87963867188</ele>
        <time>2019-05-10T17:48:00Z</time>
      </trkpt>
      <trkpt lat="43.39578" lon="5.65733">
        <ele>454.8408203125</ele>
        <time>2019-05-10T17:48:16Z</time>
      </trkpt>
      <trkpt lat="43.39579" lon="5.65738">
        <ele>455.32153320312</ele>
        <time>2019-05-10T17:48:19Z</time>
      </trkpt>
      <trkpt lat="43.3958" lon="5.65742">
        <ele>455.80224609375</ele>
        <time>2019-05-10T17:48:23Z</time>
      </trkpt>
      <trkpt lat="43.39586" lon="5.65745">
        <ele>454.8408203125</ele>
        <time>2019-05-10T17:48:28Z</time>
      </trkpt>
      <trkpt lat="43.39591" lon="5.65748">
        <ele>454.36022949219</ele>
        <time>2019-05-10T17:48:36Z</time>
      </trkpt>
      <trkpt lat="43.39598" lon="5.65754">
        <ele>453.39892578125</ele>
        <time>2019-05-10T17:48:46Z</time>
      </trkpt>
      <trkpt lat="43.39608" lon="5.65761">
        <ele>454.36022949219</ele>
        <time>2019-05-10T17:48:57Z</time>
      </trkpt>
      <trkpt lat="43.3962" lon="5.65766">
        <ele>456.76354980469</ele>
        <time>2019-05-10T17:49:10Z</time>
      </trkpt>
      <trkpt lat="43.39627" lon="5.65766">
        <ele>458.20556640625</ele>
        <time>2019-05-10T17:49:17Z</time>
      </trkpt>
      <trkpt lat="43.39638" lon="5.65771">
        <ele>462.05078125</ele>
        <time>2019-05-10T17:49:32Z</time>
      </trkpt>
      <trkpt lat="43.39643" lon="5.65779">
        <ele>464.4541015625</ele>
        <time>2019-05-10T17:49:44Z</time>
      </trkpt>
      <trkpt lat="43.39647" lon="5.65792">
        <ele>467.33813476562</ele>
        <time>2019-05-10T17:50:00Z</time>
      </trkpt>
      <trkpt lat="43.39648" lon="5.65804">
        <ele>470.22192382812</ele>
        <time>2019-05-10T17:50:14Z</time>
      </trkpt>
      <trkpt lat="43.39649" lon="5.65809">
        <ele>470.22192382812</ele>
        <time>2019-05-10T17:50:24Z</time>
      </trkpt>
      <trkpt lat="43.39649" lon="5.65813">
        <ele>469.74133300781</ele>
        <time>2019-05-10T17:50:26Z</time>
      </trkpt>
      <trkpt lat="43.39654" lon="5.65825">
        <ele>468.78002929688</ele>
        <time>2019-05-10T17:50:38Z</time>
      </trkpt>
      <trkpt lat="43.39659" lon="5.65828">
        <ele>469.2607421875</ele>
        <time>2019-05-10T17:50:55Z</time>
      </trkpt>
      <trkpt lat="43.39668" lon="5.65837">
        <ele>477.91247558594</ele>
        <time>2019-05-10T17:56:20Z</time>
      </trkpt>
      <trkpt lat="43.39674" lon="5.65846">
        <ele>479.3544921875</ele>
        <time>2019-05-10T17:56:34Z</time>
      </trkpt>
      <trkpt lat="43.39676" lon="5.65847">
        <ele>479.3544921875</ele>
        <time>2019-05-10T17:56:37Z</time>
      </trkpt>
      <trkpt lat="43.39689" lon="5.65842">
        <ele>482.23852539062</ele>
        <time>2019-05-10T17:56:48Z</time>
      </trkpt>
      <trkpt lat="43.39693" lon="5.65848">
        <ele>483.68041992188</ele>
        <time>2019-05-10T17:56:59Z</time>
      </trkpt>
      <trkpt lat="43.39702" lon="5.65859">
        <ele>488.48718261719</ele>
        <time>2019-05-10T17:57:13Z</time>
      </trkpt>
      <trkpt lat="43.39712" lon="5.65866">
        <ele>493.77429199219</ele>
        <time>2019-05-10T17:57:31Z</time>
      </trkpt>
      <trkpt lat="43.39723" lon="5.65876">
        <ele>499.0615234375</ele>
        <time>2019-05-10T17:57:51Z</time>
      </trkpt>
      <trkpt lat="43.3973" lon="5.65885">
        <ele>501.94555664062</ele>
        <time>2019-05-10T17:58:03Z</time>
      </trkpt>
      <trkpt lat="43.39744" lon="5.65895">
        <ele>504.34887695312</ele>
        <time>2019-05-10T17:58:22Z</time>
      </trkpt>
      <trkpt lat="43.39748" lon="5.65904">
        <ele>506.75207519531</ele>
        <time>2019-05-10T17:58:36Z</time>
      </trkpt>
      <trkpt lat="43.39753" lon="5.65915">
        <ele>506.75207519531</ele>
        <time>2019-05-10T17:58:49Z</time>
      </trkpt>
      <trkpt lat="43.39755" lon="5.65927">
        <ele>506.75207519531</ele>
        <time>2019-05-10T17:59:02Z</time>
      </trkpt>
      <trkpt lat="43.39754" lon="5.65939">
        <ele>506.271484375</ele>
        <time>2019-05-10T17:59:15Z</time>
      </trkpt>
      <trkpt lat="43.39752" lon="5.65954">
        <ele>505.31018066406</ele>
        <time>2019-05-10T17:59:30Z</time>
      </trkpt>
      <trkpt lat="43.3975" lon="5.65964">
        <ele>507.23278808594</ele>
        <time>2019-05-10T17:59:43Z</time>
      </trkpt>
      <trkpt lat="43.39751" lon="5.65978">
        <ele>508.19409179688</ele>
        <time>2019-05-10T17:59:56Z</time>
      </trkpt>
      <trkpt lat="43.3975" lon="5.65989">
        <ele>510.11669921875</ele>
        <time>2019-05-10T18:00:10Z</time>
      </trkpt>
      <trkpt lat="43.3975" lon="5.65998">
        <ele>511.55871582031</ele>
        <time>2019-05-10T18:00:21Z</time>
      </trkpt>
      <trkpt lat="43.3975" lon="5.66002">
        <ele>512.03942871094</ele>
        <time>2019-05-10T18:00:24Z</time>
      </trkpt>
      <trkpt lat="43.39757" lon="5.66017">
        <ele>513.00073242188</ele>
        <time>2019-05-10T18:00:39Z</time>
      </trkpt>
      <trkpt lat="43.3976" lon="5.66026">
        <ele>513.4814453125</ele>
        <time>2019-05-10T18:00:52Z</time>
      </trkpt>
      <trkpt lat="43.39763" lon="5.66037">
        <ele>513.96203613281</ele>
        <time>2019-05-10T18:01:04Z</time>
      </trkpt>
      <trkpt lat="43.39768" lon="5.6605">
        <ele>515.40405273438</ele>
        <time>2019-05-10T18:01:22Z</time>
      </trkpt>
      <trkpt lat="43.39771" lon="5.66059">
        <ele>516.365234375</ele>
        <time>2019-05-10T18:01:33Z</time>
      </trkpt>
      <trkpt lat="43.39772" lon="5.66072">
        <ele>518.7685546875</ele>
        <time>2019-05-10T18:01:46Z</time>
      </trkpt>
      <trkpt lat="43.39779" lon="5.66085">
        <ele>519.24926757812</ele>
        <time>2019-05-10T18:02:02Z</time>
      </trkpt>
      <trkpt lat="43.39786" lon="5.66089">
        <ele>521.65258789062</ele>
        <time>2019-05-10T18:02:13Z</time>
      </trkpt>
      <trkpt lat="43.39793" lon="5.66104">
        <ele>524.05578613281</ele>
        <time>2019-05-10T18:02:30Z</time>
      </trkpt>
      <trkpt lat="43.39797" lon="5.66115">
        <ele>525.97839355469</ele>
        <time>2019-05-10T18:02:43Z</time>
      </trkpt>
      <trkpt lat="43.39798" lon="5.66121">
        <ele>526.93981933594</ele>
        <time>2019-05-10T18:02:48Z</time>
      </trkpt>
      <trkpt lat="43.39801" lon="5.66132">
        <ele>527.90100097656</ele>
        <time>2019-05-10T18:02:56Z</time>
      </trkpt>
      <trkpt lat="43.39806" lon="5.66139">
        <ele>529.34313964844</ele>
        <time>2019-05-10T18:03:08Z</time>
      </trkpt>
      <trkpt lat="43.39811" lon="5.66148">
        <ele>530.78515625</ele>
        <time>2019-05-10T18:03:22Z</time>
      </trkpt>
      <trkpt lat="43.39822" lon="5.66154">
        <ele>533.18835449219</ele>
        <time>2019-05-10T18:03:38Z</time>
      </trkpt>
      <trkpt lat="43.39828" lon="5.66164">
        <ele>535.11096191406</ele>
        <time>2019-05-10T18:03:51Z</time>
      </trkpt>
      <trkpt lat="43.39838" lon="5.6617">
        <ele>534.14965820312</ele>
        <time>2019-05-10T18:04:04Z</time>
      </trkpt>
      <trkpt lat="43.39842" lon="5.66175">
        <ele>533.18835449219</ele>
        <time>2019-05-10T18:04:13Z</time>
      </trkpt>
      <trkpt lat="43.39843" lon="5.66181">
        <ele>532.22705078125</ele>
        <time>2019-05-10T18:04:20Z</time>
      </trkpt>
      <trkpt lat="43.39843" lon="5.66193">
        <ele>531.74633789062</ele>
        <time>2019-05-10T18:04:36Z</time>
      </trkpt>
      <trkpt lat="43.39842" lon="5.66195">
        <ele>531.74633789062</ele>
        <time>2019-05-10T18:04:38Z</time>
      </trkpt>
      <trkpt lat="43.39843" lon="5.66206">
        <ele>532.22705078125</ele>
        <time>2019-05-10T18:04:50Z</time>
      </trkpt>
      <trkpt lat="43.39841" lon="5.66209">
        <ele>533.6689453125</ele>
        <time>2019-05-10T18:05:03Z</time>
      </trkpt>
      <trkpt lat="43.3984" lon="5.66214">
        <ele>534.63037109375</ele>
        <time>2019-05-10T18:05:17Z</time>
      </trkpt>
      <trkpt lat="43.39842" lon="5.66222">
        <ele>538.47570800781</ele>
        <time>2019-05-10T18:05:58Z</time>
      </trkpt>
      <trkpt lat="43.39839" lon="5.66229">
        <ele>536.55310058594</ele>
        <time>2019-05-10T18:06:07Z</time>
      </trkpt>
      <trkpt lat="43.3984" lon="5.66241">
        <ele>534.63037109375</ele>
        <time>2019-05-10T18:06:23Z</time>
      </trkpt>
      <trkpt lat="43.39848" lon="5.6625">
        <ele>534.14965820312</ele>
        <time>2019-05-10T18:06:37Z</time>
      </trkpt>
      <trkpt lat="43.39854" lon="5.6626">
        <ele>535.11096191406</ele>
        <time>2019-05-10T18:06:48Z</time>
      </trkpt>
      <trkpt lat="43.39862" lon="5.66275">
        <ele>536.07238769531</ele>
        <time>2019-05-10T18:07:06Z</time>
      </trkpt>
      <trkpt lat="43.39862" lon="5.66285">
        <ele>537.03369140625</ele>
        <time>2019-05-10T18:07:17Z</time>
      </trkpt>
      <trkpt lat="43.39867" lon="5.66297">
        <ele>538.47570800781</ele>
        <time>2019-05-10T18:07:32Z</time>
      </trkpt>
      <trkpt lat="43.39873" lon="5.66307">
        <ele>540.39831542969</ele>
        <time>2019-05-10T18:07:47Z</time>
      </trkpt>
      <trkpt lat="43.39878" lon="5.66318">
        <ele>542.80151367188</ele>
        <time>2019-05-10T18:08:05Z</time>
      </trkpt>
      <trkpt lat="43.39882" lon="5.66331">
        <ele>547.12744140625</ele>
        <time>2019-05-10T18:08:21Z</time>
      </trkpt>
      <trkpt lat="43.39887" lon="5.6634">
        <ele>550.01147460938</ele>
        <time>2019-05-10T18:08:37Z</time>
      </trkpt>
      <trkpt lat="43.39889" lon="5.66353">
        <ele>555.29858398438</ele>
        <time>2019-05-10T18:08:52Z</time>
      </trkpt>
      <trkpt lat="43.39893" lon="5.66368">
        <ele>559.14404296875</ele>
        <time>2019-05-10T18:09:06Z</time>
      </trkpt>
      <trkpt lat="43.39892" lon="5.66382">
        <ele>562.50854492188</ele>
        <time>2019-05-10T18:09:21Z</time>
      </trkpt>
      <trkpt lat="43.39891" lon="5.66399">
        <ele>567.31518554688</ele>
        <time>2019-05-10T18:09:37Z</time>
      </trkpt>
      <trkpt lat="43.39901" lon="5.66413">
        <ele>572.6025390625</ele>
        <time>2019-05-10T18:09:54Z</time>
      </trkpt>
      <trkpt lat="43.39902" lon="5.66421">
        <ele>574.52514648438</ele>
        <time>2019-05-10T18:09:59Z</time>
      </trkpt>
      <trkpt lat="43.39899" lon="5.66441">
        <ele>580.77368164062</ele>
        <time>2019-05-10T18:10:21Z</time>
      </trkpt>
      <trkpt lat="43.39896" lon="5.6646">
        <ele>586.06079101562</ele>
        <time>2019-05-10T18:10:39Z</time>
      </trkpt>
      <trkpt lat="43.39893" lon="5.66473">
        <ele>588.46435546875</ele>
        <time>2019-05-10T18:10:50Z</time>
      </trkpt>
      <trkpt lat="43.39893" lon="5.66482">
        <ele>590.38696289062</ele>
        <time>2019-05-10T18:11:02Z</time>
      </trkpt>
      <trkpt lat="43.39887" lon="5.66498">
        <ele>592.3095703125</ele>
        <time>2019-05-10T18:11:16Z</time>
      </trkpt>
      <trkpt lat="43.39888" lon="5.66511">
        <ele>592.79028320312</ele>
        <time>2019-05-10T18:11:27Z</time>
      </trkpt>
      <trkpt lat="43.39883" lon="5.66524">
        <ele>591.82885742188</ele>
        <time>2019-05-10T18:11:39Z</time>
      </trkpt>
      <trkpt lat="43.39882" lon="5.66534">
        <ele>591.82885742188</ele>
        <time>2019-05-10T18:11:43Z</time>
      </trkpt>
      <trkpt lat="43.3988" lon="5.66544">
        <ele>591.82885742188</ele>
        <time>2019-05-10T18:11:50Z</time>
      </trkpt>
      <trkpt lat="43.39882" lon="5.66567">
        <ele>594.23217773438</ele>
        <time>2019-05-10T18:12:05Z</time>
      </trkpt>
      <trkpt lat="43.39886" lon="5.66576">
        <ele>594.23217773438</ele>
        <time>2019-05-10T18:12:19Z</time>
      </trkpt>
      <trkpt lat="43.39886" lon="5.66582">
        <ele>596.15478515625</ele>
        <time>2019-05-10T18:20:22Z</time>
      </trkpt>
      <trkpt lat="43.39889" lon="5.6659">
        <ele>595.67407226562</ele>
        <time>2019-05-10T18:33:04Z</time>
      </trkpt>
      <trkpt lat="43.39884" lon="5.66597">
        <ele>597.11596679688</ele>
        <time>2019-05-10T18:33:11Z</time>
      </trkpt>
      <trkpt lat="43.39887" lon="5.66618">
        <ele>598.07739257812</ele>
        <time>2019-05-10T18:33:25Z</time>
      </trkpt>
      <trkpt lat="43.3989" lon="5.6665">
        <ele>600.48071289062</ele>
        <time>2019-05-10T18:33:45Z</time>
      </trkpt>
      <trkpt lat="43.39893" lon="5.66663">
        <ele>602.8837890625</ele>
        <time>2019-05-10T18:33:57Z</time>
      </trkpt>
      <trkpt lat="43.39896" lon="5.66675">
        <ele>603.84521484375</ele>
        <time>2019-05-10T18:34:09Z</time>
      </trkpt>
      <trkpt lat="43.39903" lon="5.66689">
        <ele>605.76806640625</ele>
        <time>2019-05-10T18:34:23Z</time>
      </trkpt>
      <trkpt lat="43.3991" lon="5.66704">
        <ele>607.2099609375</ele>
        <time>2019-05-10T18:34:39Z</time>
      </trkpt>
      <trkpt lat="43.3991" lon="5.66715">
        <ele>608.17138671875</ele>
        <time>2019-05-10T18:34:52Z</time>
      </trkpt>
      <trkpt lat="43.39919" lon="5.66734">
        <ele>611.53588867188</ele>
        <time>2019-05-10T18:35:12Z</time>
      </trkpt>
      <trkpt lat="43.39924" lon="5.66741">
        <ele>614.41967773438</ele>
        <time>2019-05-10T18:35:32Z</time>
      </trkpt>
      <trkpt lat="43.39924" lon="5.66754">
        <ele>617.7841796875</ele>
        <time>2019-05-10T18:35:48Z</time>
      </trkpt>
      <trkpt lat="43.39924" lon="5.66772">
        <ele>621.14916992188</ele>
        <time>2019-05-10T18:36:04Z</time>
      </trkpt>
      <trkpt lat="43.39902" lon="5.66785">
        <ele>622.59106445312</ele>
        <time>2019-05-10T18:36:27Z</time>
      </trkpt>
      <trkpt lat="43.39899" lon="5.66802">
        <ele>624.03295898438</ele>
        <time>2019-05-10T18:36:44Z</time>
      </trkpt>
      <trkpt lat="43.39902" lon="5.66827">
        <ele>625.95556640625</ele>
        <time>2019-05-10T18:37:02Z</time>
      </trkpt>
      <trkpt lat="43.39908" lon="5.6684">
        <ele>628.35888671875</ele>
        <time>2019-05-10T18:37:22Z</time>
      </trkpt>
      <trkpt lat="43.3991" lon="5.66856">
        <ele>630.28149414062</ele>
        <time>2019-05-10T18:37:38Z</time>
      </trkpt>
      <trkpt lat="43.39908" lon="5.66861">
        <ele>630.76220703125</ele>
        <time>2019-05-10T18:37:46Z</time>
      </trkpt>
      <trkpt lat="43.39914" lon="5.66872">
        <ele>632.2041015625</ele>
        <time>2019-05-10T18:38:04Z</time>
      </trkpt>
      <trkpt lat="43.39918" lon="5.66882">
        <ele>633.16528320312</ele>
        <time>2019-05-10T18:38:26Z</time>
      </trkpt>
      <trkpt lat="43.39918" lon="5.66883">
        <ele>633.16528320312</ele>
        <time>2019-05-10T18:38:28Z</time>
      </trkpt>
      <trkpt lat="43.39928" lon="5.66895">
        <ele>632.68481445312</ele>
        <time>2019-05-10T18:38:46Z</time>
      </trkpt>
      <trkpt lat="43.39933" lon="5.6691">
        <ele>633.64599609375</ele>
        <time>2019-05-10T18:39:02Z</time>
      </trkpt>
      <trkpt lat="43.39934" lon="5.66919">
        <ele>633.64599609375</ele>
        <time>2019-05-10T18:39:13Z</time>
      </trkpt>
      <trkpt lat="43.39937" lon="5.66925">
        <ele>635.08813476562</ele>
        <time>2019-05-10T18:39:33Z</time>
      </trkpt>
      <trkpt lat="43.39944" lon="5.66929">
        <ele>637.49145507812</ele>
        <time>2019-05-10T18:39:51Z</time>
      </trkpt>
      <trkpt lat="43.39946" lon="5.66935">
        <ele>639.89477539062</ele>
        <time>2019-05-10T18:40:07Z</time>
      </trkpt>
      <trkpt lat="43.39947" lon="5.66944">
        <ele>641.33666992188</ele>
        <time>2019-05-10T18:40:19Z</time>
      </trkpt>
      <trkpt lat="43.39946" lon="5.66948">
        <ele>642.77880859375</ele>
        <time>2019-05-10T18:40:31Z</time>
      </trkpt>
      <trkpt lat="43.39948" lon="5.66954">
        <ele>646.14331054688</ele>
        <time>2019-05-10T18:40:45Z</time>
      </trkpt>
      <trkpt lat="43.39959" lon="5.66952">
        <ele>648.06591796875</ele>
        <time>2019-05-10T18:41:01Z</time>
      </trkpt>
      <trkpt lat="43.39967" lon="5.66952">
        <ele>652.39184570312</ele>
        <time>2019-05-10T18:41:15Z</time>
      </trkpt>
      <trkpt lat="43.39973" lon="5.66945">
        <ele>653.833984375</ele>
        <time>2019-05-10T18:41:24Z</time>
      </trkpt>
      <trkpt lat="43.39977" lon="5.66944">
        <ele>658.15991210938</ele>
        <time>2019-05-10T18:41:35Z</time>
      </trkpt>
      <trkpt lat="43.39978" lon="5.66931">
        <ele>662.96630859375</ele>
        <time>2019-05-10T18:41:46Z</time>
      </trkpt>
      <trkpt lat="43.39983" lon="5.66927">
        <ele>663.44702148438</ele>
        <time>2019-05-10T18:42:06Z</time>
      </trkpt>
      <trkpt lat="43.39982" lon="5.66928">
        <ele>664.408203125</ele>
        <time>2019-05-10T18:43:27Z</time>
      </trkpt>
      <trkpt lat="43.39979" lon="5.66927">
        <ele>665.36962890625</ele>
        <time>2019-05-10T18:45:19Z</time>
      </trkpt>
      <trkpt lat="43.3998" lon="5.66925">
        <ele>667.77270507812</ele>
        <time>2019-05-10T18:48:01Z</time>
      </trkpt>
      <trkpt lat="43.39982" lon="5.66926">
        <ele>668.734375</ele>
        <time>2019-05-10T18:49:48Z</time>
      </trkpt>
      <trkpt lat="43.39984" lon="5.66926">
        <ele>669.21508789062</ele>
        <time>2019-05-10T18:49:50Z</time>
      </trkpt>
      <trkpt lat="43.39991" lon="5.66922">
        <ele>673.06030273438</ele>
        <time>2019-05-10T18:49:59Z</time>
      </trkpt>
      <trkpt lat="43.39999" lon="5.66915">
        <ele>675.46337890625</ele>
        <time>2019-05-10T18:50:13Z</time>
      </trkpt>
      <trkpt lat="43.40011" lon="5.66922">
        <ele>677.86669921875</ele>
        <time>2019-05-10T18:51:37Z</time>
      </trkpt>
      <trkpt lat="43.40019" lon="5.66922">
        <ele>679.78930664062</ele>
        <time>2019-05-10T18:51:42Z</time>
      </trkpt>
      <trkpt lat="43.40025" lon="5.66925">
        <ele>680.75073242188</ele>
        <time>2019-05-10T18:51:48Z</time>
      </trkpt>
      <trkpt lat="43.40032" lon="5.66935">
        <ele>685.07690429688</ele>
        <time>2019-05-10T18:51:58Z</time>
      </trkpt>
      <trkpt lat="43.40037" lon="5.66942">
        <ele>683.63452148438</ele>
        <time>2019-05-10T18:52:06Z</time>
      </trkpt>
      <trkpt lat="43.40044" lon="5.66955">
        <ele>686.99926757812</ele>
        <time>2019-05-10T18:52:19Z</time>
      </trkpt>
      <trkpt lat="43.40047" lon="5.66957">
        <ele>686.99926757812</ele>
        <time>2019-05-10T18:52:25Z</time>
      </trkpt>
      <trkpt lat="43.40049" lon="5.6696">
        <ele>686.99926757812</ele>
        <time>2019-05-10T18:52:28Z</time>
      </trkpt>
      <trkpt lat="43.40053" lon="5.66969">
        <ele>688.44140625</ele>
        <time>2019-05-10T18:52:37Z</time>
      </trkpt>
      <trkpt lat="43.40047" lon="5.66977">
        <ele>692.28662109375</ele>
        <time>2019-05-10T18:52:50Z</time>
      </trkpt>
      <trkpt lat="43.40037" lon="5.66973">
        <ele>695.17041015625</ele>
        <time>2019-05-10T18:53:03Z</time>
      </trkpt>
      <trkpt lat="43.40027" lon="5.66971">
        <ele>696.1318359375</ele>
        <time>2019-05-10T18:53:15Z</time>
      </trkpt>
      <trkpt lat="43.4001" lon="5.6698">
        <ele>698.53491210938</ele>
        <time>2019-05-10T18:53:31Z</time>
      </trkpt>
      <trkpt lat="43.40006" lon="5.66984">
        <ele>699.49633789062</ele>
        <time>2019-05-10T18:53:35Z</time>
      </trkpt>
      <trkpt lat="43.40005" lon="5.66998">
        <ele>699.49633789062</ele>
        <time>2019-05-10T18:53:50Z</time>
      </trkpt>
      <trkpt lat="43.40006" lon="5.66998">
        <ele>700.4580078125</ele>
        <time>2019-05-10T18:53:51Z</time>
      </trkpt>
      <trkpt lat="43.40017" lon="5.66995">
        <ele>702.86108398438</ele>
        <time>2019-05-10T18:54:02Z</time>
      </trkpt>
      <trkpt lat="43.40023" lon="5.67001">
        <ele>704.78369140625</ele>
        <time>2019-05-10T18:54:09Z</time>
      </trkpt>
      <trkpt lat="43.40028" lon="5.67015">
        <ele>707.18701171875</ele>
        <time>2019-05-10T18:54:19Z</time>
      </trkpt>
      <trkpt lat="43.40032" lon="5.67031">
        <ele>708.1484375</ele>
        <time>2019-05-10T18:54:31Z</time>
      </trkpt>
      <trkpt lat="43.40031" lon="5.67043">
        <ele>709.10961914062</ele>
        <time>2019-05-10T18:54:39Z</time>
      </trkpt>
      <trkpt lat="43.40018" lon="5.67047">
        <ele>711.51293945312</ele>
        <time>2019-05-10T18:54:54Z</time>
      </trkpt>
      <trkpt lat="43.40004" lon="5.67048">
        <ele>713.435546875</ele>
        <time>2019-05-10T18:55:11Z</time>
      </trkpt>
      <trkpt lat="43.39994" lon="5.67046">
        <ele>712.95483398438</ele>
        <time>2019-05-10T18:55:26Z</time>
      </trkpt>
      <trkpt lat="43.39993" lon="5.67049">
        <ele>712.95483398438</ele>
        <time>2019-05-10T18:55:52Z</time>
      </trkpt>
      <trkpt lat="43.39996" lon="5.67048">
        <ele>711.99365234375</ele>
        <time>2019-05-10T18:58:21Z</time>
      </trkpt>
      <trkpt lat="43.39986" lon="5.67053">
        <ele>711.51293945312</ele>
        <time>2019-05-10T19:07:57Z</time>
      </trkpt>
      <trkpt lat="43.39977" lon="5.67057">
        <ele>710.55151367188</ele>
        <time>2019-05-10T19:09:13Z</time>
      </trkpt>
      <trkpt lat="43.39976" lon="5.67061">
        <ele>710.07080078125</ele>
        <time>2019-05-10T19:09:32Z</time>
      </trkpt>
      <trkpt lat="43.39973" lon="5.67057">
        <ele>708.62890625</ele>
        <time>2019-05-10T19:10:44Z</time>
      </trkpt>
      <trkpt lat="43.39975" lon="5.67063">
        <ele>708.62890625</ele>
        <time>2019-05-10T19:11:03Z</time>
      </trkpt>
      <trkpt lat="43.39976" lon="5.67059">
        <ele>708.1484375</ele>
        <time>2019-05-10T19:11:48Z</time>
      </trkpt>
      <trkpt lat="43.3998" lon="5.67058">
        <ele>708.1484375</ele>
        <time>2019-05-10T19:14:39Z</time>
      </trkpt>
      <trkpt lat="43.39993" lon="5.6705">
        <ele>709.59033203125</ele>
        <time>2019-05-10T19:14:54Z</time>
      </trkpt>
      <trkpt lat="43.39993" lon="5.67043">
        <ele>710.55151367188</ele>
        <time>2019-05-10T19:15:09Z</time>
      </trkpt>
      <trkpt lat="43.39992" lon="5.6704">
        <ele>711.99365234375</ele>
        <time>2019-05-10T19:15:11Z</time>
      </trkpt>
      <trkpt lat="43.40001" lon="5.67043">
        <ele>711.51293945312</ele>
        <time>2019-05-10T19:15:25Z</time>
      </trkpt>
      <trkpt lat="43.40007" lon="5.67051">
        <ele>711.0322265625</ele>
        <time>2019-05-10T19:15:40Z</time>
      </trkpt>
      <trkpt lat="43.40019" lon="5.67048">
        <ele>709.59033203125</ele>
        <time>2019-05-10T19:15:54Z</time>
      </trkpt>
      <trkpt lat="43.40021" lon="5.67047">
        <ele>708.62890625</ele>
        <time>2019-05-10T19:15:57Z</time>
      </trkpt>
      <trkpt lat="43.4003" lon="5.67041">
        <ele>707.18701171875</ele>
        <time>2019-05-10T19:16:12Z</time>
      </trkpt>
      <trkpt lat="43.40029" lon="5.67018">
        <ele>704.78369140625</ele>
        <time>2019-05-10T19:16:33Z</time>
      </trkpt>
      <trkpt lat="43.40027" lon="5.67014">
        <ele>704.30322265625</ele>
        <time>2019-05-10T19:16:38Z</time>
      </trkpt>
      <trkpt lat="43.40016" lon="5.66999">
        <ele>701.89990234375</ele>
        <time>2019-05-10T19:16:53Z</time>
      </trkpt>
      <trkpt lat="43.40016" lon="5.66999">
        <ele>702.38037109375</ele>
        <time>2019-05-10T19:16:54Z</time>
      </trkpt>
      <trkpt lat="43.4001" lon="5.67001">
        <ele>701.89990234375</ele>
        <time>2019-05-10T19:17:00Z</time>
      </trkpt>
      <trkpt lat="43.40003" lon="5.67004">
        <ele>700.4580078125</ele>
        <time>2019-05-10T19:17:08Z</time>
      </trkpt>
      <trkpt lat="43.4" lon="5.67002">
        <ele>700.9384765625</ele>
        <time>2019-05-10T19:17:12Z</time>
      </trkpt>
      <trkpt lat="43.40001" lon="5.66991">
        <ele>698.05444335938</ele>
        <time>2019-05-10T19:17:21Z</time>
      </trkpt>
      <trkpt lat="43.40016" lon="5.66978">
        <ele>696.61254882812</ele>
        <time>2019-05-10T19:17:38Z</time>
      </trkpt>
      <trkpt lat="43.40018" lon="5.66975">
        <ele>697.09301757812</ele>
        <time>2019-05-10T19:17:41Z</time>
      </trkpt>
      <trkpt lat="43.40026" lon="5.66975">
        <ele>699.015625</ele>
        <time>2019-05-10T19:17:51Z</time>
      </trkpt>
      <trkpt lat="43.40032" lon="5.66976">
        <ele>699.49633789062</ele>
        <time>2019-05-10T19:17:57Z</time>
      </trkpt>
      <trkpt lat="43.40045" lon="5.66983">
        <ele>693.728515625</ele>
        <time>2019-05-10T19:18:12Z</time>
      </trkpt>
      <trkpt lat="43.40063" lon="5.66991">
        <ele>692.76733398438</ele>
        <time>2019-05-10T19:18:30Z</time>
      </trkpt>
      <trkpt lat="43.40074" lon="5.66986">
        <ele>689.40258789062</ele>
        <time>2019-05-10T19:18:41Z</time>
      </trkpt>
      <trkpt lat="43.40077" lon="5.66982">
        <ele>689.88330078125</ele>
        <time>2019-05-10T19:18:59Z</time>
      </trkpt>
      <trkpt lat="43.40076" lon="5.66984">
        <ele>689.88330078125</ele>
        <time>2019-05-10T19:19:55Z</time>
      </trkpt>
      <trkpt lat="43.40079" lon="5.66989">
        <ele>691.3251953125</ele>
        <time>2019-05-10T19:29:28Z</time>
      </trkpt>
      <trkpt lat="43.40078" lon="5.6699">
        <ele>690.84448242188</ele>
        <time>2019-05-10T19:38:11Z</time>
      </trkpt>
      <trkpt lat="43.40075" lon="5.66986">
        <ele>689.40258789062</ele>
        <time>2019-05-10T20:04:58Z</time>
      </trkpt>
      <trkpt lat="43.40076" lon="5.66986">
        <ele>689.40258789062</ele>
        <time>2019-05-10T20:07:09Z</time>
      </trkpt>
      <trkpt lat="43.40076" lon="5.66987">
        <ele>689.88330078125</ele>
        <time>2019-05-10T20:07:44Z</time>
      </trkpt>
      <trkpt lat="43.40077" lon="5.66989">
        <ele>689.88330078125</ele>
        <time>2019-05-10T20:08:46Z</time>
      </trkpt>
      <trkpt lat="43.40081" lon="5.67002">
        <ele>688.92211914062</ele>
        <time>2019-05-10T20:08:55Z</time>
      </trkpt>
      <trkpt lat="43.40084" lon="5.67008">
        <ele>688.44140625</ele>
        <time>2019-05-10T20:08:59Z</time>
      </trkpt>
      <trkpt lat="43.40087" lon="5.67017">
        <ele>689.88330078125</ele>
        <time>2019-05-10T20:09:06Z</time>
      </trkpt>
      <trkpt lat="43.40087" lon="5.67023">
        <ele>690.84448242188</ele>
        <time>2019-05-10T20:09:18Z</time>
      </trkpt>
      <trkpt lat="43.40088" lon="5.67021">
        <ele>689.88330078125</ele>
        <time>2019-05-10T20:10:01Z</time>
      </trkpt>
      <trkpt lat="43.40088" lon="5.67017">
        <ele>688.92211914062</ele>
        <time>2019-05-10T20:10:05Z</time>
      </trkpt>
      <trkpt lat="43.40079" lon="5.67001">
        <ele>685.55737304688</ele>
        <time>2019-05-10T20:10:16Z</time>
      </trkpt>
      <trkpt lat="43.40075" lon="5.66992">
        <ele>686.51879882812</ele>
        <time>2019-05-10T20:10:23Z</time>
      </trkpt>
      <trkpt lat="43.40074" lon="5.66986">
        <ele>686.99926757812</ele>
        <time>2019-05-10T20:10:43Z</time>
      </trkpt>
      <trkpt lat="43.40075" lon="5.66988">
        <ele>686.51879882812</ele>
        <time>2019-05-10T20:11:23Z</time>
      </trkpt>
      <trkpt lat="43.40076" lon="5.66986">
        <ele>686.99926757812</ele>
        <time>2019-05-10T20:11:34Z</time>
      </trkpt>
      <trkpt lat="43.40076" lon="5.66985">
        <ele>686.99926757812</ele>
        <time>2019-05-10T20:13:29Z</time>
      </trkpt>
      <trkpt lat="43.40078" lon="5.6699">
        <ele>686.51879882812</ele>
        <time>2019-05-10T20:14:09Z</time>
      </trkpt>
      <trkpt lat="43.40095" lon="5.67004">
        <ele>682.67333984375</ele>
        <time>2019-05-10T20:14:28Z</time>
      </trkpt>
      <trkpt lat="43.40105" lon="5.67016">
        <ele>682.19262695312</ele>
        <time>2019-05-10T20:14:40Z</time>
      </trkpt>
      <trkpt lat="43.40116" lon="5.67041">
        <ele>676.4248046875</ele>
        <time>2019-05-10T20:15:00Z</time>
      </trkpt>
      <trkpt lat="43.40117" lon="5.67042">
        <ele>676.4248046875</ele>
        <time>2019-05-10T20:15:01Z</time>
      </trkpt>
      <trkpt lat="43.4012" lon="5.67061">
        <ele>673.541015625</ele>
        <time>2019-05-10T20:15:16Z</time>
      </trkpt>
      <trkpt lat="43.40122" lon="5.6708">
        <ele>670.65698242188</ele>
        <time>2019-05-10T20:15:31Z</time>
      </trkpt>
      <trkpt lat="43.40126" lon="5.67107">
        <ele>664.88891601562</ele>
        <time>2019-05-10T20:15:50Z</time>
      </trkpt>
      <trkpt lat="43.40127" lon="5.67111">
        <ele>664.408203125</ele>
        <time>2019-05-10T20:15:53Z</time>
      </trkpt>
      <trkpt lat="43.40126" lon="5.6714">
        <ele>660.56298828125</ele>
        <time>2019-05-10T20:16:11Z</time>
      </trkpt>
      <trkpt lat="43.40125" lon="5.67154">
        <ele>658.64038085938</ele>
        <time>2019-05-10T20:16:20Z</time>
      </trkpt>
      <trkpt lat="43.40137" lon="5.67161">
        <ele>660.08227539062</ele>
        <time>2019-05-10T20:16:32Z</time>
      </trkpt>
      <trkpt lat="43.40156" lon="5.67159">
        <ele>660.56298828125</ele>
        <time>2019-05-10T20:16:49Z</time>
      </trkpt>
      <trkpt lat="43.40168" lon="5.67161">
        <ele>661.5244140625</ele>
        <time>2019-05-10T20:17:02Z</time>
      </trkpt>
      <trkpt lat="43.40168" lon="5.67162">
        <ele>662.00512695312</ele>
        <time>2019-05-10T20:17:45Z</time>
      </trkpt>
      <trkpt lat="43.40164" lon="5.67158">
        <ele>662.00512695312</ele>
        <time>2019-05-10T20:18:01Z</time>
      </trkpt>
      <trkpt lat="43.40169" lon="5.67159">
        <ele>661.04370117188</ele>
        <time>2019-05-10T20:18:15Z</time>
      </trkpt>
      <trkpt lat="43.4017" lon="5.67159">
        <ele>660.08227539062</ele>
        <time>2019-05-10T20:18:39Z</time>
      </trkpt>
      <trkpt lat="43.40173" lon="5.67161">
        <ele>660.56298828125</ele>
        <time>2019-05-10T20:19:01Z</time>
      </trkpt>
      <trkpt lat="43.40184" lon="5.67162">
        <ele>658.15991210938</ele>
        <time>2019-05-10T20:19:11Z</time>
      </trkpt>
      <trkpt lat="43.40205" lon="5.67175">
        <ele>655.27587890625</ele>
        <time>2019-05-10T20:19:32Z</time>
      </trkpt>
      <trkpt lat="43.40206" lon="5.67176">
        <ele>653.833984375</ele>
        <time>2019-05-10T20:19:33Z</time>
      </trkpt>
      <trkpt lat="43.40212" lon="5.67179">
        <ele>650.94970703125</ele>
        <time>2019-05-10T20:19:39Z</time>
      </trkpt>
      <trkpt lat="43.40213" lon="5.67181">
        <ele>650.94970703125</ele>
        <time>2019-05-10T20:19:41Z</time>
      </trkpt>
      <trkpt lat="43.4022" lon="5.67189">
        <ele>649.98852539062</ele>
        <time>2019-05-10T20:19:48Z</time>
      </trkpt>
      <trkpt lat="43.40225" lon="5.67194">
        <ele>649.98852539062</ele>
        <time>2019-05-10T20:19:53Z</time>
      </trkpt>
      <trkpt lat="43.40236" lon="5.672">
        <ele>649.98852539062</ele>
        <time>2019-05-10T20:20:07Z</time>
      </trkpt>
      <trkpt lat="43.40238" lon="5.67203">
        <ele>649.5078125</ele>
        <time>2019-05-10T20:20:12Z</time>
      </trkpt>
      <trkpt lat="43.40245" lon="5.6721">
        <ele>651.9111328125</ele>
        <time>2019-05-10T20:20:22Z</time>
      </trkpt>
      <trkpt lat="43.4025" lon="5.67218">
        <ele>650.94970703125</ele>
        <time>2019-05-10T20:20:32Z</time>
      </trkpt>
      <trkpt lat="43.40254" lon="5.67222">
        <ele>649.5078125</ele>
        <time>2019-05-10T20:20:42Z</time>
      </trkpt>
      <trkpt lat="43.40261" lon="5.67227">
        <ele>649.98852539062</ele>
        <time>2019-05-10T20:20:50Z</time>
      </trkpt>
      <trkpt lat="43.40272" lon="5.67212">
        <ele>649.5078125</ele>
        <time>2019-05-10T20:21:04Z</time>
      </trkpt>
      <trkpt lat="43.40278" lon="5.672">
        <ele>647.58520507812</ele>
        <time>2019-05-10T20:21:15Z</time>
      </trkpt>
      <trkpt lat="43.40283" lon="5.67188">
        <ele>646.6240234375</ele>
        <time>2019-05-10T20:21:26Z</time>
      </trkpt>
      <trkpt lat="43.40293" lon="5.67174">
        <ele>645.66259765625</ele>
        <time>2019-05-10T20:21:36Z</time>
      </trkpt>
      <trkpt lat="43.403" lon="5.67153">
        <ele>644.220703125</ele>
        <time>2019-05-10T20:21:53Z</time>
      </trkpt>
      <trkpt lat="43.40302" lon="5.67133">
        <ele>639.89477539062</ele>
        <time>2019-05-10T20:22:06Z</time>
      </trkpt>
      <trkpt lat="43.40301" lon="5.67127">
        <ele>638.45288085938</ele>
        <time>2019-05-10T20:22:10Z</time>
      </trkpt>
      <trkpt lat="43.40292" lon="5.67109">
        <ele>636.5302734375</ele>
        <time>2019-05-10T20:22:24Z</time>
      </trkpt>
      <trkpt lat="43.40286" lon="5.67087">
        <ele>634.607421875</ele>
        <time>2019-05-10T20:22:37Z</time>
      </trkpt>
      <trkpt lat="43.40285" lon="5.67085">
        <ele>634.12670898438</ele>
        <time>2019-05-10T20:22:39Z</time>
      </trkpt>
      <trkpt lat="43.40284" lon="5.6708">
        <ele>633.64599609375</ele>
        <time>2019-05-10T20:22:43Z</time>
      </trkpt>
      <trkpt lat="43.40278" lon="5.67064">
        <ele>632.68481445312</ele>
        <time>2019-05-10T20:22:54Z</time>
      </trkpt>
      <trkpt lat="43.40276" lon="5.67049">
        <ele>632.68481445312</ele>
        <time>2019-05-10T20:23:08Z</time>
      </trkpt>
      <trkpt lat="43.40276" lon="5.67048">
        <ele>632.68481445312</ele>
        <time>2019-05-10T20:23:09Z</time>
      </trkpt>
      <trkpt lat="43.40274" lon="5.67016">
        <ele>631.24291992188</ele>
        <time>2019-05-10T20:23:30Z</time>
      </trkpt>
      <trkpt lat="43.4027" lon="5.66992">
        <ele>628.35888671875</ele>
        <time>2019-05-10T20:23:47Z</time>
      </trkpt>
      <trkpt lat="43.40269" lon="5.66977">
        <ele>628.83959960938</ele>
        <time>2019-05-10T20:23:56Z</time>
      </trkpt>
      <trkpt lat="43.40268" lon="5.66971">
        <ele>628.83959960938</ele>
        <time>2019-05-10T20:24:00Z</time>
      </trkpt>
      <trkpt lat="43.40265" lon="5.66959">
        <ele>629.80078125</ele>
        <time>2019-05-10T20:24:08Z</time>
      </trkpt>
      <trkpt lat="43.40265" lon="5.6693">
        <ele>628.83959960938</ele>
        <time>2019-05-10T20:24:26Z</time>
      </trkpt>
      <trkpt lat="43.40275" lon="5.66896">
        <ele>631.24291992188</ele>
        <time>2019-05-10T20:24:48Z</time>
      </trkpt>
      <trkpt lat="43.40283" lon="5.66876">
        <ele>633.64599609375</ele>
        <time>2019-05-10T20:25:03Z</time>
      </trkpt>
      <trkpt lat="43.40291" lon="5.66837">
        <ele>632.68481445312</ele>
        <time>2019-05-10T20:25:27Z</time>
      </trkpt>
      <trkpt lat="43.40293" lon="5.66826">
        <ele>631.24291992188</ele>
        <time>2019-05-10T20:25:44Z</time>
      </trkpt>
      <trkpt lat="43.40292" lon="5.66826">
        <ele>631.72338867188</ele>
        <time>2019-05-10T20:26:41Z</time>
      </trkpt>
      <trkpt lat="43.40293" lon="5.66826">
        <ele>632.2041015625</ele>
        <time>2019-05-10T20:28:30Z</time>
      </trkpt>
      <trkpt lat="43.40293" lon="5.66826">
        <ele>632.2041015625</ele>
        <time>2019-05-10T20:30:07Z</time>
      </trkpt>
      <trkpt lat="43.40293" lon="5.66826">
        <ele>632.68481445312</ele>
        <time>2019-05-10T20:31:14Z</time>
      </trkpt>
      <trkpt lat="43.40294" lon="5.66824">
        <ele>633.64599609375</ele>
        <time>2019-05-10T20:33:04Z</time>
      </trkpt>
      <trkpt lat="43.40298" lon="5.66804">
        <ele>635.08813476562</ele>
        <time>2019-05-10T20:33:21Z</time>
      </trkpt>
      <trkpt lat="43.40299" lon="5.66794">
        <ele>633.16528320312</ele>
        <time>2019-05-10T20:33:28Z</time>
      </trkpt>
      <trkpt lat="43.40296" lon="5.66779">
        <ele>631.24291992188</ele>
        <time>2019-05-10T20:33:39Z</time>
      </trkpt>
      <trkpt lat="43.40289" lon="5.66763">
        <ele>628.35888671875</ele>
        <time>2019-05-10T20:33:54Z</time>
      </trkpt>
      <trkpt lat="43.40276" lon="5.6675">
        <ele>626.9169921875</ele>
        <time>2019-05-10T20:34:12Z</time>
      </trkpt>
      <trkpt lat="43.40269" lon="5.66742">
        <ele>626.9169921875</ele>
        <time>2019-05-10T20:34:24Z</time>
      </trkpt>
      <trkpt lat="43.40265" lon="5.6674">
        <ele>626.9169921875</ele>
        <time>2019-05-10T20:34:27Z</time>
      </trkpt>
      <trkpt lat="43.40264" lon="5.66738">
        <ele>626.9169921875</ele>
        <time>2019-05-10T20:34:29Z</time>
      </trkpt>
      <trkpt lat="43.40254" lon="5.66733">
        <ele>626.9169921875</ele>
        <time>2019-05-10T20:34:38Z</time>
      </trkpt>
      <trkpt lat="43.40238" lon="5.66718">
        <ele>626.43627929688</ele>
        <time>2019-05-10T20:34:56Z</time>
      </trkpt>
      <trkpt lat="43.40234" lon="5.66712">
        <ele>625.47485351562</ele>
        <time>2019-05-10T20:35:02Z</time>
      </trkpt>
      <trkpt lat="43.40221" lon="5.66701">
        <ele>624.513671875</ele>
        <time>2019-05-10T20:35:18Z</time>
      </trkpt>
      <trkpt lat="43.40219" lon="5.667">
        <ele>624.513671875</ele>
        <time>2019-05-10T20:35:20Z</time>
      </trkpt>
      <trkpt lat="43.40214" lon="5.66695">
        <ele>624.03295898438</ele>
        <time>2019-05-10T20:35:27Z</time>
      </trkpt>
      <trkpt lat="43.40196" lon="5.6669">
        <ele>622.1103515625</ele>
        <time>2019-05-10T20:35:46Z</time>
      </trkpt>
      <trkpt lat="43.40195" lon="5.66689">
        <ele>622.1103515625</ele>
        <time>2019-05-10T20:35:48Z</time>
      </trkpt>
      <trkpt lat="43.40183" lon="5.66687">
        <ele>623.07177734375</ele>
        <time>2019-05-10T20:36:01Z</time>
      </trkpt>
      <trkpt lat="43.40172" lon="5.66685">
        <ele>626.43627929688</ele>
        <time>2019-05-10T20:36:11Z</time>
      </trkpt>
      <trkpt lat="43.40168" lon="5.66686">
        <ele>627.39770507812</ele>
        <time>2019-05-10T20:36:15Z</time>
      </trkpt>
      <trkpt lat="43.40162" lon="5.66681">
        <ele>630.28149414062</ele>
        <time>2019-05-10T20:36:22Z</time>
      </trkpt>
      <trkpt lat="43.4016" lon="5.66675">
        <ele>630.28149414062</ele>
        <time>2019-05-10T20:36:28Z</time>
      </trkpt>
      <trkpt lat="43.4016" lon="5.66671">
        <ele>629.80078125</ele>
        <time>2019-05-10T20:36:30Z</time>
      </trkpt>
      <trkpt lat="43.40161" lon="5.66662">
        <ele>630.28149414062</ele>
        <time>2019-05-10T20:36:36Z</time>
      </trkpt>
      <trkpt lat="43.40161" lon="5.66655">
        <ele>629.80078125</ele>
        <time>2019-05-10T20:36:39Z</time>
      </trkpt>
      <trkpt lat="43.40158" lon="5.66643">
        <ele>626.43627929688</ele>
        <time>2019-05-10T20:36:47Z</time>
      </trkpt>
      <trkpt lat="43.40157" lon="5.66632">
        <ele>625.47485351562</ele>
        <time>2019-05-10T20:36:56Z</time>
      </trkpt>
      <trkpt lat="43.40156" lon="5.66625">
        <ele>625.95556640625</ele>
        <time>2019-05-10T20:37:02Z</time>
      </trkpt>
      <trkpt lat="43.40153" lon="5.66603">
        <ele>623.55249023438</ele>
        <time>2019-05-10T20:37:18Z</time>
      </trkpt>
      <trkpt lat="43.40155" lon="5.66585">
        <ele>621.62963867188</ele>
        <time>2019-05-10T20:37:33Z</time>
      </trkpt>
      <trkpt lat="43.40155" lon="5.66584">
        <ele>621.14916992188</ele>
        <time>2019-05-10T20:37:34Z</time>
      </trkpt>
      <trkpt lat="43.40154" lon="5.66578">
        <ele>621.14916992188</ele>
        <time>2019-05-10T20:37:37Z</time>
      </trkpt>
      <trkpt lat="43.40155" lon="5.6656">
        <ele>620.18774414062</ele>
        <time>2019-05-10T20:37:50Z</time>
      </trkpt>
      <trkpt lat="43.40157" lon="5.66556">
        <ele>620.18774414062</ele>
        <time>2019-05-10T20:37:53Z</time>
      </trkpt>
      <trkpt lat="43.40156" lon="5.66552">
        <ele>620.18774414062</ele>
        <time>2019-05-10T20:37:55Z</time>
      </trkpt>
      <trkpt lat="43.40156" lon="5.66547">
        <ele>620.66845703125</ele>
        <time>2019-05-10T20:37:58Z</time>
      </trkpt>
      <trkpt lat="43.4016" lon="5.66533">
        <ele>619.70703125</ele>
        <time>2019-05-10T20:38:08Z</time>
      </trkpt>
      <trkpt lat="43.40163" lon="5.66526">
        <ele>619.70703125</ele>
        <time>2019-05-10T20:38:14Z</time>
      </trkpt>
      <trkpt lat="43.4017" lon="5.66514">
        <ele>620.18774414062</ele>
        <time>2019-05-10T20:38:25Z</time>
      </trkpt>
      <trkpt lat="43.40174" lon="5.66504">
        <ele>617.7841796875</ele>
        <time>2019-05-10T20:38:33Z</time>
      </trkpt>
      <trkpt lat="43.40178" lon="5.66491">
        <ele>618.74560546875</ele>
        <time>2019-05-10T20:38:43Z</time>
      </trkpt>
      <trkpt lat="43.40178" lon="5.66486">
        <ele>617.7841796875</ele>
        <time>2019-05-10T20:38:46Z</time>
      </trkpt>
      <trkpt lat="43.40174" lon="5.66472">
        <ele>617.7841796875</ele>
        <time>2019-05-10T20:38:55Z</time>
      </trkpt>
      <trkpt lat="43.40173" lon="5.66466">
        <ele>617.3037109375</ele>
        <time>2019-05-10T20:38:59Z</time>
      </trkpt>
      <trkpt lat="43.40166" lon="5.6645">
        <ele>619.70703125</ele>
        <time>2019-05-10T20:39:11Z</time>
      </trkpt>
      <trkpt lat="43.40157" lon="5.66434">
        <ele>616.34228515625</ele>
        <time>2019-05-10T20:39:27Z</time>
      </trkpt>
      <trkpt lat="43.40148" lon="5.66415">
        <ele>612.97778320312</ele>
        <time>2019-05-10T20:39:44Z</time>
      </trkpt>
      <trkpt lat="43.40141" lon="5.66399">
        <ele>608.17138671875</ele>
        <time>2019-05-10T20:39:57Z</time>
      </trkpt>
      <trkpt lat="43.4014" lon="5.66398">
        <ele>608.17138671875</ele>
        <time>2019-05-10T20:39:58Z</time>
      </trkpt>
      <trkpt lat="43.40135" lon="5.6639">
        <ele>608.17138671875</ele>
        <time>2019-05-10T20:40:04Z</time>
      </trkpt>
      <trkpt lat="43.40134" lon="5.66386">
        <ele>607.2099609375</ele>
        <time>2019-05-10T20:40:06Z</time>
      </trkpt>
      <trkpt lat="43.40133" lon="5.66384">
        <ele>606.72924804688</ele>
        <time>2019-05-10T20:40:08Z</time>
      </trkpt>
      <trkpt lat="43.40131" lon="5.66371">
        <ele>608.17138671875</ele>
        <time>2019-05-10T20:40:16Z</time>
      </trkpt>
      <trkpt lat="43.40124" lon="5.66359">
        <ele>605.76806640625</ele>
        <time>2019-05-10T20:40:27Z</time>
      </trkpt>
      <trkpt lat="43.40123" lon="5.66356">
        <ele>605.28735351562</ele>
        <time>2019-05-10T20:40:29Z</time>
      </trkpt>
      <trkpt lat="43.40121" lon="5.66353">
        <ele>604.326171875</ele>
        <time>2019-05-10T20:40:33Z</time>
      </trkpt>
      <trkpt lat="43.40118" lon="5.66342">
        <ele>601.44189453125</ele>
        <time>2019-05-10T20:40:42Z</time>
      </trkpt>
      <trkpt lat="43.40114" lon="5.66333">
        <ele>600</ele>
        <time>2019-05-10T20:40:52Z</time>
      </trkpt>
      <trkpt lat="43.40107" lon="5.66315">
        <ele>600</ele>
        <time>2019-05-10T20:41:04Z</time>
      </trkpt>
      <trkpt lat="43.40106" lon="5.66311">
        <ele>599.51928710938</ele>
        <time>2019-05-10T20:41:07Z</time>
      </trkpt>
      <trkpt lat="43.40103" lon="5.66303">
        <ele>598.07739257812</ele>
        <time>2019-05-10T20:41:14Z</time>
      </trkpt>
      <trkpt lat="43.40099" lon="5.6629">
        <ele>598.07739257812</ele>
        <time>2019-05-10T20:41:23Z</time>
      </trkpt>
      <trkpt lat="43.40095" lon="5.66273">
        <ele>598.55786132812</ele>
        <time>2019-05-10T20:41:36Z</time>
      </trkpt>
      <trkpt lat="43.40095" lon="5.66268">
        <ele>599.03857421875</ele>
        <time>2019-05-10T20:41:40Z</time>
      </trkpt>
      <trkpt lat="43.40094" lon="5.66261">
        <ele>599.51928710938</ele>
        <time>2019-05-10T20:41:46Z</time>
      </trkpt>
      <trkpt lat="43.40091" lon="5.66253">
        <ele>599.51928710938</ele>
        <time>2019-05-10T20:41:52Z</time>
      </trkpt>
      <trkpt lat="43.40088" lon="5.66247">
        <ele>599.03857421875</ele>
        <time>2019-05-10T20:41:57Z</time>
      </trkpt>
      <trkpt lat="43.40088" lon="5.66244">
        <ele>599.51928710938</ele>
        <time>2019-05-10T20:41:59Z</time>
      </trkpt>
      <trkpt lat="43.40087" lon="5.66233">
        <ele>600.48071289062</ele>
        <time>2019-05-10T20:42:08Z</time>
      </trkpt>
      <trkpt lat="43.40083" lon="5.66228">
        <ele>600</ele>
        <time>2019-05-10T20:42:12Z</time>
      </trkpt>
      <trkpt lat="43.4008" lon="5.6622">
        <ele>599.51928710938</ele>
        <time>2019-05-10T20:42:16Z</time>
      </trkpt>
      <trkpt lat="43.40074" lon="5.66201">
        <ele>599.03857421875</ele>
        <time>2019-05-10T20:42:30Z</time>
      </trkpt>
      <trkpt lat="43.40068" lon="5.66186">
        <ele>598.07739257812</ele>
        <time>2019-05-10T20:42:42Z</time>
      </trkpt>
      <trkpt lat="43.40062" lon="5.66176">
        <ele>596.63549804688</ele>
        <time>2019-05-10T20:42:52Z</time>
      </trkpt>
      <trkpt lat="43.4006" lon="5.66168">
        <ele>596.15478515625</ele>
        <time>2019-05-10T20:42:59Z</time>
      </trkpt>
      <trkpt lat="43.40058" lon="5.6616">
        <ele>596.63549804688</ele>
        <time>2019-05-10T20:43:05Z</time>
      </trkpt>
      <trkpt lat="43.40056" lon="5.66157">
        <ele>596.15478515625</ele>
        <time>2019-05-10T20:43:08Z</time>
      </trkpt>
      <trkpt lat="43.40054" lon="5.66147">
        <ele>597.11596679688</ele>
        <time>2019-05-10T20:43:15Z</time>
      </trkpt>
      <trkpt lat="43.40052" lon="5.66141">
        <ele>597.11596679688</ele>
        <time>2019-05-10T20:43:19Z</time>
      </trkpt>
      <trkpt lat="43.40052" lon="5.66137">
        <ele>597.5966796875</ele>
        <time>2019-05-10T20:43:22Z</time>
      </trkpt>
      <trkpt lat="43.4005" lon="5.66132">
        <ele>597.5966796875</ele>
        <time>2019-05-10T20:43:26Z</time>
      </trkpt>
      <trkpt lat="43.40047" lon="5.66123">
        <ele>598.55786132812</ele>
        <time>2019-05-10T20:43:34Z</time>
      </trkpt>
      <trkpt lat="43.40045" lon="5.66103">
        <ele>597.11596679688</ele>
        <time>2019-05-10T20:43:48Z</time>
      </trkpt>
      <trkpt lat="43.40041" lon="5.66094">
        <ele>596.63549804688</ele>
        <time>2019-05-10T20:43:55Z</time>
      </trkpt>
      <trkpt lat="43.40038" lon="5.66078">
        <ele>594.71264648438</ele>
        <time>2019-05-10T20:44:07Z</time>
      </trkpt>
      <trkpt lat="43.40035" lon="5.66066">
        <ele>593.27075195312</ele>
        <time>2019-05-10T20:44:15Z</time>
      </trkpt>
      <trkpt lat="43.40031" lon="5.66059">
        <ele>592.79028320312</ele>
        <time>2019-05-10T20:44:22Z</time>
      </trkpt>
      <trkpt lat="43.40027" lon="5.66048">
        <ele>591.82885742188</ele>
        <time>2019-05-10T20:44:30Z</time>
      </trkpt>
      <trkpt lat="43.40026" lon="5.66045">
        <ele>591.34814453125</ele>
        <time>2019-05-10T20:44:32Z</time>
      </trkpt>
      <trkpt lat="43.40023" lon="5.66037">
        <ele>590.38696289062</ele>
        <time>2019-05-10T20:44:40Z</time>
      </trkpt>
      <trkpt lat="43.4002" lon="5.66031">
        <ele>588.46435546875</ele>
        <time>2019-05-10T20:44:52Z</time>
      </trkpt>
      <trkpt lat="43.40019" lon="5.66031">
        <ele>588.46435546875</ele>
        <time>2019-05-10T20:50:27Z</time>
      </trkpt>
      <trkpt lat="43.40012" lon="5.66034">
        <ele>589.42553710938</ele>
        <time>2019-05-10T20:50:52Z</time>
      </trkpt>
      <trkpt lat="43.40002" lon="5.66049">
        <ele>587.9833984375</ele>
        <time>2019-05-10T20:51:05Z</time>
      </trkpt>
      <trkpt lat="43.39995" lon="5.66063">
        <ele>587.50268554688</ele>
        <time>2019-05-10T20:51:19Z</time>
      </trkpt>
      <trkpt lat="43.39988" lon="5.66067">
        <ele>587.02197265625</ele>
        <time>2019-05-10T20:51:27Z</time>
      </trkpt>
      <trkpt lat="43.39982" lon="5.6607">
        <ele>586.54150390625</ele>
        <time>2019-05-10T20:51:32Z</time>
      </trkpt>
      <trkpt lat="43.3998" lon="5.66072">
        <ele>586.06079101562</ele>
        <time>2019-05-10T20:51:34Z</time>
      </trkpt>
      <trkpt lat="43.39978" lon="5.66072">
        <ele>586.06079101562</ele>
        <time>2019-05-10T20:51:36Z</time>
      </trkpt>
      <trkpt lat="43.3997" lon="5.66079">
        <ele>582.6962890625</ele>
        <time>2019-05-10T20:51:47Z</time>
      </trkpt>
      <trkpt lat="43.39966" lon="5.66079">
        <ele>581.25439453125</ele>
        <time>2019-05-10T20:51:51Z</time>
      </trkpt>
      <trkpt lat="43.39956" lon="5.66083">
        <ele>577.4091796875</ele>
        <time>2019-05-10T20:52:04Z</time>
      </trkpt>
      <trkpt lat="43.39952" lon="5.66088">
        <ele>575.96704101562</ele>
        <time>2019-05-10T20:52:11Z</time>
      </trkpt>
      <trkpt lat="43.39941" lon="5.661">
        <ele>573.56396484375</ele>
        <time>2019-05-10T20:52:26Z</time>
      </trkpt>
      <trkpt lat="43.3994" lon="5.66103">
        <ele>572.6025390625</ele>
        <time>2019-05-10T20:52:29Z</time>
      </trkpt>
      <trkpt lat="43.39937" lon="5.66127">
        <ele>571.16040039062</ele>
        <time>2019-05-10T20:52:43Z</time>
      </trkpt>
      <trkpt lat="43.39937" lon="5.66161">
        <ele>572.6025390625</ele>
        <time>2019-05-10T20:53:04Z</time>
      </trkpt>
      <trkpt lat="43.39936" lon="5.6618">
        <ele>567.79565429688</ele>
        <time>2019-05-10T20:53:18Z</time>
      </trkpt>
      <trkpt lat="43.39935" lon="5.66194">
        <ele>568.2763671875</ele>
        <time>2019-05-10T20:53:27Z</time>
      </trkpt>
      <trkpt lat="43.39929" lon="5.66219">
        <ele>567.79565429688</ele>
        <time>2019-05-10T20:53:43Z</time>
      </trkpt>
      <trkpt lat="43.39921" lon="5.66236">
        <ele>565.87329101562</ele>
        <time>2019-05-10T20:53:59Z</time>
      </trkpt>
      <trkpt lat="43.3992" lon="5.66235">
        <ele>566.35375976562</ele>
        <time>2019-05-10T20:55:21Z</time>
      </trkpt>
      <trkpt lat="43.39921" lon="5.66234">
        <ele>566.83447265625</ele>
        <time>2019-05-10T20:59:36Z</time>
      </trkpt>
      <trkpt lat="43.39921" lon="5.66234">
        <ele>566.83447265625</ele>
        <time>2019-05-10T21:00:32Z</time>
      </trkpt>
      <trkpt lat="43.39921" lon="5.66234">
        <ele>566.83447265625</ele>
        <time>2019-05-10T21:01:30Z</time>
      </trkpt>
      <trkpt lat="43.39915" lon="5.66246">
        <ele>566.35375976562</ele>
        <time>2019-05-10T21:02:06Z</time>
      </trkpt>
      <trkpt lat="43.39913" lon="5.66252">
        <ele>568.75708007812</ele>
        <time>2019-05-10T21:02:11Z</time>
      </trkpt>
      <trkpt lat="43.3992" lon="5.66267">
        <ele>571.16040039062</ele>
        <time>2019-05-10T21:02:25Z</time>
      </trkpt>
      <trkpt lat="43.39921" lon="5.66271">
        <ele>570.6796875</ele>
        <time>2019-05-10T21:02:30Z</time>
      </trkpt>
      <trkpt lat="43.39922" lon="5.66285">
        <ele>569.71850585938</ele>
        <time>2019-05-10T21:02:43Z</time>
      </trkpt>
      <trkpt lat="43.3992" lon="5.6629">
        <ele>569.23779296875</ele>
        <time>2019-05-10T21:02:48Z</time>
      </trkpt>
      <trkpt lat="43.39917" lon="5.66305">
        <ele>567.79565429688</ele>
        <time>2019-05-10T21:03:00Z</time>
      </trkpt>
      <trkpt lat="43.39913" lon="5.66318">
        <ele>568.2763671875</ele>
        <time>2019-05-10T21:03:10Z</time>
      </trkpt>
      <trkpt lat="43.39911" lon="5.66329">
        <ele>568.75708007812</ele>
        <time>2019-05-10T21:03:19Z</time>
      </trkpt>
      <trkpt lat="43.39908" lon="5.66337">
        <ele>569.23779296875</ele>
        <time>2019-05-10T21:03:25Z</time>
      </trkpt>
      <trkpt lat="43.39904" lon="5.66346">
        <ele>568.2763671875</ele>
        <time>2019-05-10T21:03:38Z</time>
      </trkpt>
      <trkpt lat="43.39896" lon="5.6634">
        <ele>567.31518554688</ele>
        <time>2019-05-10T21:03:52Z</time>
      </trkpt>
      <trkpt lat="43.39894" lon="5.66331">
        <ele>565.392578125</ele>
        <time>2019-05-10T21:04:06Z</time>
      </trkpt>
      <trkpt lat="43.39893" lon="5.6633">
        <ele>565.392578125</ele>
        <time>2019-05-10T21:04:08Z</time>
      </trkpt>
      <trkpt lat="43.39889" lon="5.6632">
        <ele>562.50854492188</ele>
        <time>2019-05-10T21:04:22Z</time>
      </trkpt>
      <trkpt lat="43.39886" lon="5.66314">
        <ele>559.14404296875</ele>
        <time>2019-05-10T21:04:34Z</time>
      </trkpt>
      <trkpt lat="43.39879" lon="5.66307">
        <ele>556.26000976562</ele>
        <time>2019-05-10T21:04:47Z</time>
      </trkpt>
      <trkpt lat="43.39879" lon="5.663">
        <ele>552.89526367188</ele>
        <time>2019-05-10T21:04:58Z</time>
      </trkpt>
      <trkpt lat="43.39877" lon="5.66295">
        <ele>552.89526367188</ele>
        <time>2019-05-10T21:05:14Z</time>
      </trkpt>
      <trkpt lat="43.39872" lon="5.66285">
        <ele>551.93408203125</ele>
        <time>2019-05-10T21:05:30Z</time>
      </trkpt>
      <trkpt lat="43.39867" lon="5.66277">
        <ele>550.4921875</ele>
        <time>2019-05-10T21:05:45Z</time>
      </trkpt>
      <trkpt lat="43.39867" lon="5.66277">
        <ele>550.4921875</ele>
        <time>2019-05-10T21:05:46Z</time>
      </trkpt>
      <trkpt lat="43.39865" lon="5.66272">
        <ele>549.05004882812</ele>
        <time>2019-05-10T21:05:53Z</time>
      </trkpt>
      <trkpt lat="43.39863" lon="5.66262">
        <ele>551.93408203125</ele>
        <time>2019-05-10T21:06:04Z</time>
      </trkpt>
      <trkpt lat="43.39863" lon="5.66249">
        <ele>554.81787109375</ele>
        <time>2019-05-10T21:06:19Z</time>
      </trkpt>
      <trkpt lat="43.3986" lon="5.66238">
        <ele>558.18286132812</ele>
        <time>2019-05-10T21:06:31Z</time>
      </trkpt>
      <trkpt lat="43.39858" lon="5.66231">
        <ele>560.10522460938</ele>
        <time>2019-05-10T21:06:38Z</time>
      </trkpt>
      <trkpt lat="43.39859" lon="5.66225">
        <ele>561.06665039062</ele>
        <time>2019-05-10T21:06:45Z</time>
      </trkpt>
      <trkpt lat="43.39856" lon="5.66221">
        <ele>558.18286132812</ele>
        <time>2019-05-10T21:06:58Z</time>
      </trkpt>
      <trkpt lat="43.39853" lon="5.66212">
        <ele>556.74072265625</ele>
        <time>2019-05-10T21:07:05Z</time>
      </trkpt>
      <trkpt lat="43.3985" lon="5.662">
        <ele>554.81787109375</ele>
        <time>2019-05-10T21:07:19Z</time>
      </trkpt>
      <trkpt lat="43.39849" lon="5.66194">
        <ele>554.81787109375</ele>
        <time>2019-05-10T21:07:23Z</time>
      </trkpt>
      <trkpt lat="43.3984" lon="5.66186">
        <ele>554.33740234375</ele>
        <time>2019-05-10T21:07:37Z</time>
      </trkpt>
      <trkpt lat="43.39839" lon="5.66181">
        <ele>551.45336914062</ele>
        <time>2019-05-10T21:07:49Z</time>
      </trkpt>
      <trkpt lat="43.39838" lon="5.66181">
        <ele>550.97265625</ele>
        <time>2019-05-10T21:07:51Z</time>
      </trkpt>
      <trkpt lat="43.39839" lon="5.66168">
        <ele>549.05004882812</ele>
        <time>2019-05-10T21:08:04Z</time>
      </trkpt>
      <trkpt lat="43.39837" lon="5.66165">
        <ele>548.0888671875</ele>
        <time>2019-05-10T21:08:13Z</time>
      </trkpt>
      <trkpt lat="43.39835" lon="5.66155">
        <ele>547.60815429688</ele>
        <time>2019-05-10T21:08:25Z</time>
      </trkpt>
      <trkpt lat="43.39831" lon="5.66147">
        <ele>550.01147460938</ele>
        <time>2019-05-10T21:08:35Z</time>
      </trkpt>
      <trkpt lat="43.3983" lon="5.66141">
        <ele>552.41455078125</ele>
        <time>2019-05-10T21:08:46Z</time>
      </trkpt>
      <trkpt lat="43.39829" lon="5.6614">
        <ele>552.41455078125</ele>
        <time>2019-05-10T21:09:05Z</time>
      </trkpt>
      <trkpt lat="43.39828" lon="5.66139">
        <ele>551.93408203125</ele>
        <time>2019-05-10T21:10:07Z</time>
      </trkpt>
      <trkpt lat="43.39827" lon="5.6614">
        <ele>551.45336914062</ele>
        <time>2019-05-10T21:11:23Z</time>
      </trkpt>
      <trkpt lat="43.39827" lon="5.66141">
        <ele>550.97265625</ele>
        <time>2019-05-10T21:12:18Z</time>
      </trkpt>
      <trkpt lat="43.39826" lon="5.66135">
        <ele>549.53076171875</ele>
        <time>2019-05-10T21:12:47Z</time>
      </trkpt>
      <trkpt lat="43.39818" lon="5.66127">
        <ele>548.5693359375</ele>
        <time>2019-05-10T21:13:01Z</time>
      </trkpt>
      <trkpt lat="43.39811" lon="5.66115">
        <ele>545.20483398438</ele>
        <time>2019-05-10T21:13:13Z</time>
      </trkpt>
      <trkpt lat="43.39804" lon="5.66109">
        <ele>542.80151367188</ele>
        <time>2019-05-10T21:13:26Z</time>
      </trkpt>
      <trkpt lat="43.39801" lon="5.66096">
        <ele>539.91760253906</ele>
        <time>2019-05-10T21:13:39Z</time>
      </trkpt>
      <trkpt lat="43.39795" lon="5.66088">
        <ele>537.03369140625</ele>
        <time>2019-05-10T21:13:47Z</time>
      </trkpt>
      <trkpt lat="43.39788" lon="5.66087">
        <ele>532.22705078125</ele>
        <time>2019-05-10T21:13:58Z</time>
      </trkpt>
      <trkpt lat="43.39778" lon="5.66077">
        <ele>526.93981933594</ele>
        <time>2019-05-10T21:14:13Z</time>
      </trkpt>
      <trkpt lat="43.39776" lon="5.66069">
        <ele>524.05578613281</ele>
        <time>2019-05-10T21:14:28Z</time>
      </trkpt>
      <trkpt lat="43.39776" lon="5.66063">
        <ele>521.65258789062</ele>
        <time>2019-05-10T21:14:35Z</time>
      </trkpt>
      <trkpt lat="43.39773" lon="5.66052">
        <ele>519.24926757812</ele>
        <time>2019-05-10T21:14:48Z</time>
      </trkpt>
      <trkpt lat="43.39772" lon="5.66046">
        <ele>518.28784179688</ele>
        <time>2019-05-10T21:14:57Z</time>
      </trkpt>
      <trkpt lat="43.39769" lon="5.66037">
        <ele>517.80725097656</ele>
        <time>2019-05-10T21:15:09Z</time>
      </trkpt>
      <trkpt lat="43.39767" lon="5.66033">
        <ele>516.365234375</ele>
        <time>2019-05-10T21:15:21Z</time>
      </trkpt>
      <trkpt lat="43.39762" lon="5.66021">
        <ele>515.88464355469</ele>
        <time>2019-05-10T21:15:34Z</time>
      </trkpt>
      <trkpt lat="43.39761" lon="5.66015">
        <ele>516.365234375</ele>
        <time>2019-05-10T21:15:40Z</time>
      </trkpt>
      <trkpt lat="43.3976" lon="5.66013">
        <ele>515.88464355469</ele>
        <time>2019-05-10T21:15:42Z</time>
      </trkpt>
      <trkpt lat="43.39756" lon="5.6601">
        <ele>515.40405273438</ele>
        <time>2019-05-10T21:15:49Z</time>
      </trkpt>
      <trkpt lat="43.39754" lon="5.65995">
        <ele>513.4814453125</ele>
        <time>2019-05-10T21:16:05Z</time>
      </trkpt>
      <trkpt lat="43.39754" lon="5.65988">
        <ele>513.96203613281</ele>
        <time>2019-05-10T21:16:15Z</time>
      </trkpt>
      <trkpt lat="43.39757" lon="5.65983">
        <ele>513.4814453125</ele>
        <time>2019-05-10T21:16:25Z</time>
      </trkpt>
      <trkpt lat="43.39756" lon="5.65979">
        <ele>512.52001953125</ele>
        <time>2019-05-10T21:16:35Z</time>
      </trkpt>
      <trkpt lat="43.39755" lon="5.65972">
        <ele>510.59729003906</ele>
        <time>2019-05-10T21:16:45Z</time>
      </trkpt>
      <trkpt lat="43.39753" lon="5.65963">
        <ele>509.15539550781</ele>
        <time>2019-05-10T21:16:59Z</time>
      </trkpt>
      <trkpt lat="43.39754" lon="5.65957">
        <ele>507.23278808594</ele>
        <time>2019-05-10T21:17:08Z</time>
      </trkpt>
      <trkpt lat="43.39757" lon="5.6595">
        <ele>504.82946777344</ele>
        <time>2019-05-10T21:17:16Z</time>
      </trkpt>
      <trkpt lat="43.39757" lon="5.65945">
        <ele>504.34887695312</ele>
        <time>2019-05-10T21:17:19Z</time>
      </trkpt>
      <trkpt lat="43.39757" lon="5.65937">
        <ele>501.94555664062</ele>
        <time>2019-05-10T21:17:29Z</time>
      </trkpt>
      <trkpt lat="43.3976" lon="5.65926">
        <ele>501.94555664062</ele>
        <time>2019-05-10T21:17:43Z</time>
      </trkpt>
      <trkpt lat="43.39754" lon="5.65913">
        <ele>501.46484375</ele>
        <time>2019-05-10T21:17:56Z</time>
      </trkpt>
      <trkpt lat="43.39747" lon="5.65898">
        <ele>496.177734375</ele>
        <time>2019-05-10T21:18:17Z</time>
      </trkpt>
      <trkpt lat="43.39739" lon="5.65885">
        <ele>493.29357910156</ele>
        <time>2019-05-10T21:18:36Z</time>
      </trkpt>
      <trkpt lat="43.39734" lon="5.65877">
        <ele>489.92907714844</ele>
        <time>2019-05-10T21:18:51Z</time>
      </trkpt>
      <trkpt lat="43.39728" lon="5.65868">
        <ele>486.564453125</ele>
        <time>2019-05-10T21:19:08Z</time>
      </trkpt>
      <trkpt lat="43.39718" lon="5.6586">
        <ele>485.12243652344</ele>
        <time>2019-05-10T21:19:29Z</time>
      </trkpt>
      <trkpt lat="43.39701" lon="5.65848">
        <ele>482.71923828125</ele>
        <time>2019-05-10T21:19:48Z</time>
      </trkpt>
      <trkpt lat="43.39699" lon="5.65847">
        <ele>482.23852539062</ele>
        <time>2019-05-10T21:19:50Z</time>
      </trkpt>
      <trkpt lat="43.39695" lon="5.65842">
        <ele>481.27722167969</ele>
        <time>2019-05-10T21:19:55Z</time>
      </trkpt>
      <trkpt lat="43.3969" lon="5.65836">
        <ele>480.31591796875</ele>
        <time>2019-05-10T21:20:01Z</time>
      </trkpt>
      <trkpt lat="43.39681" lon="5.65838">
        <ele>480.79663085938</ele>
        <time>2019-05-10T21:20:11Z</time>
      </trkpt>
      <trkpt lat="43.39675" lon="5.6583">
        <ele>481.27722167969</ele>
        <time>2019-05-10T21:20:27Z</time>
      </trkpt>
      <trkpt lat="43.39664" lon="5.65827">
        <ele>479.3544921875</ele>
        <time>2019-05-10T21:20:48Z</time>
      </trkpt>
      <trkpt lat="43.39655" lon="5.65817">
        <ele>477.91247558594</ele>
        <time>2019-05-10T21:21:03Z</time>
      </trkpt>
      <trkpt lat="43.39651" lon="5.65804">
        <ele>476.95129394531</ele>
        <time>2019-05-10T21:21:21Z</time>
      </trkpt>
      <trkpt lat="43.39649" lon="5.65793">
        <ele>476.47058105469</ele>
        <time>2019-05-10T21:21:38Z</time>
      </trkpt>
      <trkpt lat="43.39649" lon="5.65779">
        <ele>475.98986816406</ele>
        <time>2019-05-10T21:21:52Z</time>
      </trkpt>
      <trkpt lat="43.39643" lon="5.65767">
        <ele>475.98986816406</ele>
        <time>2019-05-10T21:22:04Z</time>
      </trkpt>
      <trkpt lat="43.39636" lon="5.65765">
        <ele>474.54797363281</ele>
        <time>2019-05-10T21:22:15Z</time>
      </trkpt>
      <trkpt lat="43.39615" lon="5.65751">
        <ele>470.70263671875</ele>
        <time>2019-05-10T21:22:34Z</time>
      </trkpt>
      <trkpt lat="43.39604" lon="5.6575">
        <ele>469.74133300781</ele>
        <time>2019-05-10T21:22:49Z</time>
      </trkpt>
      <trkpt lat="43.3959" lon="5.65744">
        <ele>467.33813476562</ele>
        <time>2019-05-10T21:23:04Z</time>
      </trkpt>
      <trkpt lat="43.39579" lon="5.65739">
        <ele>465.89611816406</ele>
        <time>2019-05-10T21:23:16Z</time>
      </trkpt>
      <trkpt lat="43.39578" lon="5.65736">
        <ele>464.93481445312</ele>
        <time>2019-05-10T21:23:48Z</time>
      </trkpt>
      <trkpt lat="43.39574" lon="5.65727">
        <ele>463.01208496094</ele>
        <time>2019-05-10T21:44:44Z</time>
      </trkpt>
      <trkpt lat="43.39572" lon="5.65712">
        <ele>462.53137207031</ele>
        <time>2019-05-10T21:45:01Z</time>
      </trkpt>
      <trkpt lat="43.39566" lon="5.65696">
        <ele>462.53137207031</ele>
        <time>2019-05-10T21:45:13Z</time>
      </trkpt>
      <trkpt lat="43.39561" lon="5.65685">
        <ele>461.57019042969</ele>
        <time>2019-05-10T21:45:25Z</time>
      </trkpt>
      <trkpt lat="43.39557" lon="5.65679">
        <ele>461.57019042969</ele>
        <time>2019-05-10T21:45:31Z</time>
      </trkpt>
      <trkpt lat="43.39547" lon="5.65664">
        <ele>463.01208496094</ele>
        <time>2019-05-10T21:45:48Z</time>
      </trkpt>
      <trkpt lat="43.39533" lon="5.65654">
        <ele>462.05078125</ele>
        <time>2019-05-10T21:46:05Z</time>
      </trkpt>
      <trkpt lat="43.39533" lon="5.65651">
        <ele>461.08947753906</ele>
        <time>2019-05-10T21:46:30Z</time>
      </trkpt>
      <trkpt lat="43.39533" lon="5.65641">
        <ele>458.68615722656</ele>
        <time>2019-05-10T21:46:44Z</time>
      </trkpt>
      <trkpt lat="43.3952" lon="5.6563">
        <ele>455.80224609375</ele>
        <time>2019-05-10T21:47:01Z</time>
      </trkpt>
      <trkpt lat="43.39516" lon="5.65627">
        <ele>453.39892578125</ele>
        <time>2019-05-10T21:47:19Z</time>
      </trkpt>
      <trkpt lat="43.39502" lon="5.65605">
        <ele>451.47631835938</ele>
        <time>2019-05-10T21:47:56Z</time>
      </trkpt>
      <trkpt lat="43.39498" lon="5.65588">
        <ele>448.59240722656</ele>
        <time>2019-05-10T21:48:16Z</time>
      </trkpt>
      <trkpt lat="43.39503" lon="5.65587">
        <ele>447.63098144531</ele>
        <time>2019-05-10T21:48:25Z</time>
      </trkpt>
      <trkpt lat="43.39507" lon="5.65582">
        <ele>446.66967773438</ele>
        <time>2019-05-10T21:48:31Z</time>
      </trkpt>
      <trkpt lat="43.39511" lon="5.65569">
        <ele>445.70837402344</ele>
        <time>2019-05-10T21:48:43Z</time>
      </trkpt>
      <trkpt lat="43.39512" lon="5.65568">
        <ele>445.22766113281</ele>
        <time>2019-05-10T21:48:44Z</time>
      </trkpt>
      <trkpt lat="43.39513" lon="5.65563">
        <ele>444.7470703125</ele>
        <time>2019-05-10T21:48:49Z</time>
      </trkpt>
      <trkpt lat="43.39514" lon="5.65553">
        <ele>442.82446289062</ele>
        <time>2019-05-10T21:49:02Z</time>
      </trkpt>
      <trkpt lat="43.39513" lon="5.65553">
        <ele>442.34387207031</ele>
        <time>2019-05-10T21:49:05Z</time>
      </trkpt>
      <trkpt lat="43.3951" lon="5.65541">
        <ele>442.34387207031</ele>
        <time>2019-05-10T21:49:15Z</time>
      </trkpt>
      <trkpt lat="43.39515" lon="5.6553">
        <ele>440.42126464844</ele>
        <time>2019-05-10T21:49:26Z</time>
      </trkpt>
      <trkpt lat="43.3952" lon="5.65523">
        <ele>439.9404296875</ele>
        <time>2019-05-10T21:49:37Z</time>
      </trkpt>
      <trkpt lat="43.3952" lon="5.65513">
        <ele>438.49853515625</ele>
        <time>2019-05-10T21:49:47Z</time>
      </trkpt>
      <trkpt lat="43.39515" lon="5.65505">
        <ele>435.61450195312</ele>
        <time>2019-05-10T21:49:59Z</time>
      </trkpt>
      <trkpt lat="43.3951" lon="5.655">
        <ele>433.69189453125</ele>
        <time>2019-05-10T21:50:07Z</time>
      </trkpt>
      <trkpt lat="43.39507" lon="5.65497">
        <ele>432.25</ele>
        <time>2019-05-10T21:50:12Z</time>
      </trkpt>
      <trkpt lat="43.395" lon="5.65488">
        <ele>429.84655761719</ele>
        <time>2019-05-10T21:50:25Z</time>
      </trkpt>
      <trkpt lat="43.39493" lon="5.65481">
        <ele>426.96276855469</ele>
        <time>2019-05-10T21:50:41Z</time>
      </trkpt>
      <trkpt lat="43.39485" lon="5.65477">
        <ele>426.00134277344</ele>
        <time>2019-05-10T21:50:53Z</time>
      </trkpt>
      <trkpt lat="43.39477" lon="5.65477">
        <ele>424.07873535156</ele>
        <time>2019-05-10T21:51:07Z</time>
      </trkpt>
      <trkpt lat="43.3947" lon="5.65483">
        <ele>421.19482421875</ele>
        <time>2019-05-10T21:51:19Z</time>
      </trkpt>
      <trkpt lat="43.39463" lon="5.65486">
        <ele>419.27221679688</ele>
        <time>2019-05-10T21:51:29Z</time>
      </trkpt>
      <trkpt lat="43.39452" lon="5.65486">
        <ele>415.90747070312</ele>
        <time>2019-05-10T21:51:45Z</time>
      </trkpt>
      <trkpt lat="43.39447" lon="5.65482">
        <ele>413.98486328125</ele>
        <time>2019-05-10T21:51:51Z</time>
      </trkpt>
      <trkpt lat="43.39444" lon="5.65468">
        <ele>413.50427246094</ele>
        <time>2019-05-10T21:52:03Z</time>
      </trkpt>
      <trkpt lat="43.39438" lon="5.65455">
        <ele>414.94616699219</ele>
        <time>2019-05-10T21:52:16Z</time>
      </trkpt>
      <trkpt lat="43.39439" lon="5.65441">
        <ele>414.94616699219</ele>
        <time>2019-05-10T21:52:27Z</time>
      </trkpt>
      <trkpt lat="43.39437" lon="5.65421">
        <ele>415.90747070312</ele>
        <time>2019-05-10T21:52:40Z</time>
      </trkpt>
      <trkpt lat="43.39437" lon="5.65418">
        <ele>416.38818359375</ele>
        <time>2019-05-10T21:52:43Z</time>
      </trkpt>
      <trkpt lat="43.39438" lon="5.6541">
        <ele>416.86889648438</ele>
        <time>2019-05-10T21:52:49Z</time>
      </trkpt>
      <trkpt lat="43.39437" lon="5.65408">
        <ele>416.86889648438</ele>
        <time>2019-05-10T21:52:51Z</time>
      </trkpt>
      <trkpt lat="43.39438" lon="5.65396">
        <ele>417.349609375</ele>
        <time>2019-05-10T21:53:04Z</time>
      </trkpt>
      <trkpt lat="43.39432" lon="5.65384">
        <ele>418.31079101562</ele>
        <time>2019-05-10T21:53:15Z</time>
      </trkpt>
      <trkpt lat="43.39427" lon="5.65374">
        <ele>418.31079101562</ele>
        <time>2019-05-10T21:53:27Z</time>
      </trkpt>
      <trkpt lat="43.39427" lon="5.65372">
        <ele>418.31079101562</ele>
        <time>2019-05-10T21:53:29Z</time>
      </trkpt>
      <trkpt lat="43.39422" lon="5.65362">
        <ele>415.90747070312</ele>
        <time>2019-05-10T21:53:38Z</time>
      </trkpt>
      <trkpt lat="43.3942" lon="5.6536">
        <ele>414.94616699219</ele>
        <time>2019-05-10T21:53:40Z</time>
      </trkpt>
      <trkpt lat="43.39414" lon="5.65342">
        <ele>411.10095214844</ele>
        <time>2019-05-10T21:53:53Z</time>
      </trkpt>
      <trkpt lat="43.39415" lon="5.65332">
        <ele>412.54284667969</ele>
        <time>2019-05-10T21:54:00Z</time>
      </trkpt>
      <trkpt lat="43.39405" lon="5.65324">
        <ele>409.17834472656</ele>
        <time>2019-05-10T21:54:13Z</time>
      </trkpt>
      <trkpt lat="43.39391" lon="5.6532">
        <ele>404.85229492188</ele>
        <time>2019-05-10T21:54:31Z</time>
      </trkpt>
      <trkpt lat="43.39378" lon="5.65324">
        <ele>403.89111328125</ele>
        <time>2019-05-10T21:54:43Z</time>
      </trkpt>
      <trkpt lat="43.39373" lon="5.65327">
        <ele>403.89111328125</ele>
        <time>2019-05-10T21:54:46Z</time>
      </trkpt>
      <trkpt lat="43.39366" lon="5.65327">
        <ele>402.9296875</ele>
        <time>2019-05-10T21:54:56Z</time>
      </trkpt>
      <trkpt lat="43.39354" lon="5.65331">
        <ele>401.48779296875</ele>
        <time>2019-05-10T21:55:08Z</time>
      </trkpt>
      <trkpt lat="43.39352" lon="5.65331">
        <ele>401.48779296875</ele>
        <time>2019-05-10T21:55:10Z</time>
      </trkpt>
      <trkpt lat="43.39337" lon="5.65331">
        <ele>399.08435058594</ele>
        <time>2019-05-10T21:55:23Z</time>
      </trkpt>
      <trkpt lat="43.39327" lon="5.65325">
        <ele>396.68115234375</ele>
        <time>2019-05-10T21:55:37Z</time>
      </trkpt>
      <trkpt lat="43.39324" lon="5.65319">
        <ele>396.68115234375</ele>
        <time>2019-05-10T21:55:40Z</time>
      </trkpt>
      <trkpt lat="43.39326" lon="5.65315">
        <ele>395.71984863281</ele>
        <time>2019-05-10T21:55:44Z</time>
      </trkpt>
      <trkpt lat="43.39335" lon="5.65308">
        <ele>391.39379882812</ele>
        <time>2019-05-10T21:55:56Z</time>
      </trkpt>
      <trkpt lat="43.39344" lon="5.653">
        <ele>387.06799316406</ele>
        <time>2019-05-10T21:56:07Z</time>
      </trkpt>
      <trkpt lat="43.39349" lon="5.65289">
        <ele>384.66479492188</ele>
        <time>2019-05-10T21:56:17Z</time>
      </trkpt>
      <trkpt lat="43.39348" lon="5.65281">
        <ele>383.70324707031</ele>
        <time>2019-05-10T21:56:20Z</time>
      </trkpt>
      <trkpt lat="43.39348" lon="5.65278">
        <ele>383.70324707031</ele>
        <time>2019-05-10T21:56:22Z</time>
      </trkpt>
      <trkpt lat="43.39344" lon="5.65269">
        <ele>379.85803222656</ele>
        <time>2019-05-10T21:56:33Z</time>
      </trkpt>
      <trkpt lat="43.39333" lon="5.65259">
        <ele>377.93542480469</ele>
        <time>2019-05-10T21:56:47Z</time>
      </trkpt>
      <trkpt lat="43.39323" lon="5.65261">
        <ele>377.45483398438</ele>
        <time>2019-05-10T21:56:54Z</time>
      </trkpt>
      <trkpt lat="43.39316" lon="5.65258">
        <ele>376.97424316406</ele>
        <time>2019-05-10T21:57:00Z</time>
      </trkpt>
      <trkpt lat="43.39309" lon="5.65252">
        <ele>374.09008789062</ele>
        <time>2019-05-10T21:57:11Z</time>
      </trkpt>
      <trkpt lat="43.39296" lon="5.65235">
        <ele>373.12890625</ele>
        <time>2019-05-10T21:57:26Z</time>
      </trkpt>
      <trkpt lat="43.39294" lon="5.65229">
        <ele>372.64819335938</ele>
        <time>2019-05-10T21:57:30Z</time>
      </trkpt>
      <trkpt lat="43.39289" lon="5.65212">
        <ele>370.7255859375</ele>
        <time>2019-05-10T21:57:41Z</time>
      </trkpt>
      <trkpt lat="43.39282" lon="5.652">
        <ele>369.76428222656</ele>
        <time>2019-05-10T21:57:52Z</time>
      </trkpt>
      <trkpt lat="43.39281" lon="5.65199">
        <ele>369.28369140625</ele>
        <time>2019-05-10T21:57:53Z</time>
      </trkpt>
      <trkpt lat="43.3927" lon="5.6519">
        <ele>366.39953613281</ele>
        <time>2019-05-10T21:58:05Z</time>
      </trkpt>
      <trkpt lat="43.39268" lon="5.6519">
        <ele>366.39953613281</ele>
        <time>2019-05-10T21:58:08Z</time>
      </trkpt>
      <trkpt lat="43.39255" lon="5.65181">
        <ele>365.9189453125</ele>
        <time>2019-05-10T21:58:18Z</time>
      </trkpt>
      <trkpt lat="43.39251" lon="5.65177">
        <ele>365.9189453125</ele>
        <time>2019-05-10T21:58:24Z</time>
      </trkpt>
      <trkpt lat="43.39238" lon="5.65166">
        <ele>366.39953613281</ele>
        <time>2019-05-10T21:58:37Z</time>
      </trkpt>
      <trkpt lat="43.39232" lon="5.65159">
        <ele>365.9189453125</ele>
        <time>2019-05-10T21:58:45Z</time>
      </trkpt>
      <trkpt lat="43.39228" lon="5.65157">
        <ele>365.9189453125</ele>
        <time>2019-05-10T21:58:48Z</time>
      </trkpt>
      <trkpt lat="43.39215" lon="5.65147">
        <ele>366.39953613281</ele>
        <time>2019-05-10T21:59:00Z</time>
      </trkpt>
      <trkpt lat="43.39211" lon="5.65135">
        <ele>367.84155273438</ele>
        <time>2019-05-10T21:59:11Z</time>
      </trkpt>
      <trkpt lat="43.39209" lon="5.65129">
        <ele>367.84155273438</ele>
        <time>2019-05-10T21:59:14Z</time>
      </trkpt>
      <trkpt lat="43.39208" lon="5.65125">
        <ele>367.84155273438</ele>
        <time>2019-05-10T21:59:17Z</time>
      </trkpt>
      <trkpt lat="43.39202" lon="5.65119">
        <ele>368.80297851562</ele>
        <time>2019-05-10T21:59:25Z</time>
      </trkpt>
      <trkpt lat="43.39199" lon="5.65117">
        <ele>369.76428222656</ele>
        <time>2019-05-10T21:59:28Z</time>
      </trkpt>
      <trkpt lat="43.39197" lon="5.65115">
        <ele>371.20629882812</ele>
        <time>2019-05-10T21:59:30Z</time>
      </trkpt>
      <trkpt lat="43.39188" lon="5.65106">
        <ele>373.60949707031</ele>
        <time>2019-05-10T21:59:41Z</time>
      </trkpt>
      <trkpt lat="43.39187" lon="5.65104">
        <ele>374.57080078125</ele>
        <time>2019-05-10T21:59:43Z</time>
      </trkpt>
      <trkpt lat="43.39183" lon="5.65093">
        <ele>374.09008789062</ele>
        <time>2019-05-10T21:59:52Z</time>
      </trkpt>
      <trkpt lat="43.39181" lon="5.6507">
        <ele>372.16748046875</ele>
        <time>2019-05-10T22:00:06Z</time>
      </trkpt>
      <trkpt lat="43.3918" lon="5.65064">
        <ele>371.20629882812</ele>
        <time>2019-05-10T22:00:10Z</time>
      </trkpt>
      <trkpt lat="43.39178" lon="5.65052">
        <ele>370.7255859375</ele>
        <time>2019-05-10T22:00:18Z</time>
      </trkpt>
      <trkpt lat="43.39181" lon="5.65041">
        <ele>368.80297851562</ele>
        <time>2019-05-10T22:00:28Z</time>
      </trkpt>
      <trkpt lat="43.39184" lon="5.6503">
        <ele>367.36096191406</ele>
        <time>2019-05-10T22:00:34Z</time>
      </trkpt>
      <trkpt lat="43.39185" lon="5.65022">
        <ele>365.43835449219</ele>
        <time>2019-05-10T22:00:40Z</time>
      </trkpt>
      <trkpt lat="43.39194" lon="5.6501">
        <ele>362.55432128906</ele>
        <time>2019-05-10T22:00:50Z</time>
      </trkpt>
      <trkpt lat="43.392" lon="5.65004">
        <ele>360.15112304688</ele>
        <time>2019-05-10T22:00:58Z</time>
      </trkpt>
      <trkpt lat="43.39204" lon="5.64991">
        <ele>357.26708984375</ele>
        <time>2019-05-10T22:01:11Z</time>
      </trkpt>
      <trkpt lat="43.39198" lon="5.64983">
        <ele>355.34448242188</ele>
        <time>2019-05-10T22:01:20Z</time>
      </trkpt>
      <trkpt lat="43.39192" lon="5.64971">
        <ele>353.421875</ele>
        <time>2019-05-10T22:01:30Z</time>
      </trkpt>
      <trkpt lat="43.39191" lon="5.64969">
        <ele>353.421875</ele>
        <time>2019-05-10T22:01:31Z</time>
      </trkpt>
      <trkpt lat="43.39185" lon="5.64952">
        <ele>352.46057128906</ele>
        <time>2019-05-10T22:01:39Z</time>
      </trkpt>
      <trkpt lat="43.39179" lon="5.64941">
        <ele>349.09582519531</ele>
        <time>2019-05-10T22:01:52Z</time>
      </trkpt>
      <trkpt lat="43.39176" lon="5.64937">
        <ele>348.615234375</ele>
        <time>2019-05-10T22:01:56Z</time>
      </trkpt>
      <trkpt lat="43.39158" lon="5.64919">
        <ele>347.17321777344</ele>
        <time>2019-05-10T22:02:12Z</time>
      </trkpt>
      <trkpt lat="43.39149" lon="5.64907">
        <ele>346.69262695312</ele>
        <time>2019-05-10T22:02:21Z</time>
      </trkpt>
      <trkpt lat="43.39139" lon="5.64895">
        <ele>347.17321777344</ele>
        <time>2019-05-10T22:02:34Z</time>
      </trkpt>
      <trkpt lat="43.39137" lon="5.64884">
        <ele>348.13464355469</ele>
        <time>2019-05-10T22:02:43Z</time>
      </trkpt>
      <trkpt lat="43.39133" lon="5.64876">
        <ele>348.615234375</ele>
        <time>2019-05-10T22:02:48Z</time>
      </trkpt>
      <trkpt lat="43.39127" lon="5.64859">
        <ele>348.13464355469</ele>
        <time>2019-05-10T22:03:01Z</time>
      </trkpt>
      <trkpt lat="43.39123" lon="5.64852">
        <ele>349.09582519531</ele>
        <time>2019-05-10T22:03:10Z</time>
      </trkpt>
      <trkpt lat="43.39112" lon="5.64843">
        <ele>349.09582519531</ele>
        <time>2019-05-10T22:03:18Z</time>
      </trkpt>
      <trkpt lat="43.39099" lon="5.6483">
        <ele>349.09582519531</ele>
        <time>2019-05-10T22:03:32Z</time>
      </trkpt>
      <trkpt lat="43.39089" lon="5.64815">
        <ele>348.615234375</ele>
        <time>2019-05-10T22:03:46Z</time>
      </trkpt>
      <trkpt lat="43.39077" lon="5.64785">
        <ele>348.615234375</ele>
        <time>2019-05-10T22:04:09Z</time>
      </trkpt>
      <trkpt lat="43.39075" lon="5.6478">
        <ele>348.615234375</ele>
        <time>2019-05-10T22:04:12Z</time>
      </trkpt>
      <trkpt lat="43.39065" lon="5.64771">
        <ele>348.13464355469</ele>
        <time>2019-05-10T22:04:21Z</time>
      </trkpt>
      <trkpt lat="43.39063" lon="5.64769">
        <ele>348.13464355469</ele>
        <time>2019-05-10T22:04:23Z</time>
      </trkpt>
      <trkpt lat="43.39057" lon="5.64751">
        <ele>346.69262695312</ele>
        <time>2019-05-10T22:04:37Z</time>
      </trkpt>
      <trkpt lat="43.39053" lon="5.64731">
        <ele>342.84729003906</ele>
        <time>2019-05-10T22:04:50Z</time>
      </trkpt>
      <trkpt lat="43.39056" lon="5.64706">
        <ele>338.04077148438</ele>
        <time>2019-05-10T22:05:10Z</time>
      </trkpt>
      <trkpt lat="43.39043" lon="5.64696">
        <ele>336.1181640625</ele>
        <time>2019-05-10T22:05:23Z</time>
      </trkpt>
      <trkpt lat="43.39035" lon="5.64689">
        <ele>334.67614746094</ele>
        <time>2019-05-10T22:05:43Z</time>
      </trkpt>
      <trkpt lat="43.39034" lon="5.64687">
        <ele>334.19543457031</ele>
        <time>2019-05-10T22:06:32Z</time>
      </trkpt>
      <trkpt lat="43.39033" lon="5.64689">
        <ele>334.67614746094</ele>
        <time>2019-05-10T22:06:55Z</time>
      </trkpt>
    </trkseg>
  </trk>
</gpx>